IBE281 LEMD-RJAA
Flight info
| Callsign | IBE281 |
|---|---|
| Flight time | N/A |
| Altitude | 34000 |
| Route | PINAR3N PINAR N870 BCN N725 OSPOK/N0487F350 DCT NOLVI DCT ORKUM/N0486F360 DCT ELSAG DCT ALG DCT XOLTA/N0487F350 DCT RAMAP DCT NISVA Q13 RUTAR/N0484F370 Q13 UDROS DCT CRM DCT ROLIN DCT TETRO DCT BARAD M747 SUBUT T916 LEYLA N161 GASBI/K0909F370 N161 ABDUN/K0909F390 N161 SARIN/K0893S1190 A368 FKG W188 GOVSA W66 JNQ/K0895S1250 W66 DKO W69 HUR B339 LADIX W34 VAPGU W100 ORAVA W201 UNSEK A326 DONVO G597 AGAVO/N0489F410 Y644 EGOBA Y697 LANAT Y51 SAMON Y517 ESKAS Y303 ENTAK Y30 SWAMP SWAMPG |
| Aircraft | A359/H-SDE2E3GHIJ3J4J5LM1ORWXY/LB1D1 |
Departure
| Time | 2026-05-07 21:49 |
|---|---|
| Airport | Adolfo Suárez Madrid–Barajas Airport (LEMD) |
Arrival
| Time | N/A |
|---|---|
| Airport | Narita International Airport (RJAA) |
| Time | Latitude | Longitude | Altitude | Speed | Heading |
|---|---|---|---|---|---|
| 2026-05-07 20:55 | 40.49562 | -3.56648 | 1977 ft | 0 kts | 271° |
| 2026-05-07 21:32 | 40.49562 | -3.56639 | 1981 ft | 2 kts | 271° |
| 2026-05-07 21:33 | 40.49562 | -3.56618 | 1978 ft | 2 kts | 271° |
| 2026-05-07 21:33 | 40.49562 | -3.56597 | 1979 ft | 2 kts | 271° |
| 2026-05-07 21:33 | 40.49562 | -3.56575 | 1978 ft | 2 kts | 283° |
| 2026-05-07 21:33 | 40.49555 | -3.56557 | 1979 ft | 2 kts | 309° |
| 2026-05-07 21:34 | 40.49542 | -3.56545 | 1978 ft | 2 kts | 354° |
| 2026-05-07 21:34 | 40.49532 | -3.56544 | 1977 ft | 0 kts | 360° |
| 2026-05-07 21:38 | 40.49533 | -3.56544 | 1975 ft | 0 kts | 360° |
| 2026-05-07 21:38 | 40.49548 | -3.56545 | 1980 ft | 2 kts | 359° |
| 2026-05-07 21:39 | 40.49592 | -3.56545 | 1979 ft | 9 kts | 359° |
| 2026-05-07 21:39 | 40.49655 | -3.56546 | 1977 ft | 9 kts | 359° |
| 2026-05-07 21:39 | 40.49720 | -3.56547 | 1980 ft | 9 kts | 360° |
| 2026-05-07 21:39 | 40.49787 | -3.56547 | 1979 ft | 10 kts | 360° |
| 2026-05-07 21:40 | 40.49856 | -3.56548 | 1979 ft | 10 kts | 359° |
| 2026-05-07 21:40 | 40.49925 | -3.56548 | 1979 ft | 10 kts | 359° |
| 2026-05-07 21:40 | 40.49990 | -3.56551 | 1980 ft | 9 kts | 351° |
| 2026-05-07 21:40 | 40.50021 | -3.56593 | 1980 ft | 5 kts | 284° |
| 2026-05-07 21:41 | 40.50026 | -3.56635 | 1981 ft | 3 kts | 276° |
| 2026-05-07 21:41 | 40.50026 | -3.56647 | 1982 ft | 0 kts | 275° |
| 2026-05-07 21:41 | 40.50026 | -3.56670 | 1983 ft | 5 kts | 269° |
| 2026-05-07 21:41 | 40.50025 | -3.56736 | 1984 ft | 11 kts | 269° |
| 2026-05-07 21:42 | 40.50024 | -3.56867 | 1986 ft | 18 kts | 269° |
| 2026-05-07 21:42 | 40.50023 | -3.57034 | 1986 ft | 17 kts | 269° |
| 2026-05-07 21:42 | 40.49960 | -3.57117 | 1990 ft | 11 kts | 188° |
| 2026-05-07 21:42 | 40.49904 | -3.57119 | 1994 ft | 6 kts | 180° |
| 2026-05-07 21:43 | 40.49843 | -3.57119 | 1994 ft | 11 kts | 180° |
| 2026-05-07 21:43 | 40.49738 | -3.57118 | 1991 ft | 18 kts | 179° |
| 2026-05-07 21:43 | 40.49609 | -3.57117 | 1989 ft | 19 kts | 179° |
| 2026-05-07 21:43 | 40.49469 | -3.57116 | 1986 ft | 21 kts | 180° |
| 2026-05-07 21:44 | 40.49323 | -3.57115 | 1985 ft | 21 kts | 180° |
| 2026-05-07 21:44 | 40.49225 | -3.57119 | 1991 ft | 11 kts | 190° |
| 2026-05-07 21:44 | 40.49186 | -3.57183 | 1992 ft | 9 kts | 253° |
| 2026-05-07 21:44 | 40.49182 | -3.57257 | 1990 ft | 7 kts | 269° |
| 2026-05-07 21:45 | 40.49182 | -3.57261 | 1990 ft | 0 kts | 269° |
| 2026-05-07 21:46 | 40.49182 | -3.57273 | 1989 ft | 6 kts | 269° |
| 2026-05-07 21:46 | 40.49181 | -3.57374 | 1990 ft | 12 kts | 269° |
| 2026-05-07 21:46 | 40.49210 | -3.57444 | 1994 ft | 7 kts | 340° |
| 2026-05-07 21:47 | 40.49270 | -3.57452 | 1991 ft | 10 kts | 1° |
| 2026-05-07 21:47 | 40.49314 | -3.57452 | 1989 ft | 0 kts | 360° |
| 2026-05-07 21:48 | 40.49365 | -3.57452 | 1991 ft | 20 kts | 360° |
| 2026-05-07 21:48 | 40.49721 | -3.57455 | 1993 ft | 81 kts | 0° |
| 2026-05-07 21:48 | 40.50479 | -3.57460 | 1999 ft | 135 kts | 360° |
| 2026-05-07 21:49 | 40.51576 | -3.57469 | 2012 ft | 180 kts | 360° |
| 2026-05-07 21:49 | 40.52865 | -3.57475 | 2517 ft | 181 kts | 0° |
| 2026-05-07 21:49 | 40.54123 | -3.57450 | 3208 ft | 182 kts | 1° |
| 2026-05-07 21:49 | 40.55435 | -3.57359 | 3557 ft | 198 kts | 7° |
| 2026-05-07 21:50 | 40.56828 | -3.56873 | 3660 ft | 216 kts | 21° |
| 2026-05-07 21:50 | 40.58257 | -3.56148 | 3840 ft | 231 kts | 21° |
| 2026-05-07 21:50 | 40.59842 | -3.55506 | 4125 ft | 242 kts | 16° |
| 2026-05-07 21:50 | 40.61479 | -3.54923 | 4630 ft | 245 kts | 16° |
| 2026-05-07 21:51 | 40.63132 | -3.54348 | 5117 ft | 247 kts | 16° |
| 2026-05-07 21:51 | 40.64847 | -3.54000 | 5575 ft | 251 kts | 4° |
| 2026-05-07 21:51 | 40.66598 | -3.53896 | 6104 ft | 252 kts | 3° |
| 2026-05-07 21:51 | 40.68354 | -3.53790 | 6625 ft | 253 kts | 4° |
| 2026-05-07 21:52 | 40.70039 | -3.53286 | 7061 ft | 254 kts | 27° |
| 2026-05-07 21:52 | 40.71393 | -3.51795 | 7355 ft | 261 kts | 53° |
| 2026-05-07 21:52 | 40.72475 | -3.49800 | 7590 ft | 274 kts | 58° |
| 2026-05-07 21:52 | 40.73545 | -3.47668 | 7986 ft | 281 kts | 58° |
| 2026-05-07 21:53 | 40.74638 | -3.45506 | 8452 ft | 286 kts | 57° |
| 2026-05-07 21:53 | 40.75757 | -3.43316 | 8943 ft | 290 kts | 57° |
| 2026-05-07 21:53 | 40.76894 | -3.41106 | 9499 ft | 292 kts | 57° |
| 2026-05-07 21:53 | 40.78043 | -3.38881 | 10025 ft | 295 kts | 57° |
| 2026-05-07 21:54 | 40.79200 | -3.36643 | 10331 ft | 306 kts | 56° |
| 2026-05-07 21:54 | 40.80428 | -3.34268 | 10559 ft | 319 kts | 56° |
| 2026-05-07 21:54 | 40.81701 | -3.31806 | 10788 ft | 331 kts | 56° |
| 2026-05-07 21:54 | 40.83024 | -3.29247 | 11000 ft | 343 kts | 56° |
| 2026-05-07 21:55 | 40.84391 | -3.26594 | 11233 ft | 355 kts | 57° |
| 2026-05-07 21:55 | 40.85545 | -3.23670 | 11411 ft | 365 kts | 71° |
| 2026-05-07 21:55 | 40.86283 | -3.20421 | 11638 ft | 375 kts | 76° |
| 2026-05-07 21:55 | 40.86941 | -3.17040 | 11844 ft | 384 kts | 77° |
| 2026-05-07 21:56 | 40.87607 | -3.13583 | 12114 ft | 391 kts | 77° |
| 2026-05-07 21:56 | 40.88276 | -3.10134 | 12512 ft | 394 kts | 76° |
| 2026-05-07 21:56 | 40.88962 | -3.06614 | 12934 ft | 397 kts | 76° |
| 2026-05-07 21:56 | 40.89655 | -3.03074 | 13352 ft | 399 kts | 76° |
| 2026-05-07 21:57 | 40.90352 | -2.99513 | 13753 ft | 402 kts | 76° |
| 2026-05-07 21:57 | 40.91054 | -2.95924 | 14108 ft | 404 kts | 76° |
| 2026-05-07 21:57 | 40.91760 | -2.92309 | 14460 ft | 407 kts | 76° |
| 2026-05-07 21:57 | 40.92468 | -2.88677 | 14827 ft | 409 kts | 76° |
| 2026-05-07 21:58 | 40.93170 | -2.85073 | 15188 ft | 411 kts | 76° |
| 2026-05-07 21:58 | 40.93884 | -2.81399 | 15542 ft | 414 kts | 76° |
| 2026-05-07 21:58 | 40.94600 | -2.77706 | 15895 ft | 416 kts | 76° |
| 2026-05-07 21:58 | 40.95321 | -2.73986 | 16250 ft | 419 kts | 76° |
| 2026-05-07 21:59 | 40.96043 | -2.70248 | 16608 ft | 421 kts | 76° |
| 2026-05-07 21:59 | 40.96770 | -2.66484 | 16961 ft | 423 kts | 76° |
| 2026-05-07 21:59 | 40.97496 | -2.62711 | 17352 ft | 424 kts | 76° |
| 2026-05-07 21:59 | 40.98226 | -2.58914 | 17704 ft | 426 kts | 76° |
| 2026-05-07 22:00 | 40.98958 | -2.55099 | 18034 ft | 429 kts | 76° |
| 2026-05-07 22:00 | 40.99693 | -2.51259 | 18350 ft | 431 kts | 76° |
| 2026-05-07 22:00 | 41.00419 | -2.47452 | 18619 ft | 434 kts | 75° |
| 2026-05-07 22:00 | 41.01159 | -2.43568 | 18874 ft | 437 kts | 75° |
| 2026-05-07 22:01 | 41.01904 | -2.39649 | 19154 ft | 440 kts | 75° |
| 2026-05-07 22:01 | 41.02651 | -2.35715 | 19426 ft | 442 kts | 75° |
| 2026-05-07 22:01 | 41.03401 | -2.31761 | 19687 ft | 445 kts | 75° |
| 2026-05-07 22:01 | 41.04156 | -2.27777 | 19925 ft | 448 kts | 75° |
| 2026-05-07 22:02 | 41.04918 | -2.23749 | 20101 ft | 452 kts | 75° |
| 2026-05-07 22:02 | 41.05682 | -2.19699 | 20384 ft | 454 kts | 75° |
| 2026-05-07 22:02 | 41.06438 | -2.15685 | 20642 ft | 457 kts | 75° |
| 2026-05-07 22:02 | 41.07209 | -2.11582 | 20900 ft | 459 kts | 75° |
| 2026-05-07 22:03 | 41.07981 | -2.07462 | 21159 ft | 462 kts | 75° |
| 2026-05-07 22:03 | 41.08755 | -2.03320 | 21416 ft | 464 kts | 75° |
| 2026-05-07 22:03 | 41.09531 | -1.99156 | 21672 ft | 467 kts | 75° |
| 2026-05-07 22:03 | 41.10310 | -1.94962 | 21925 ft | 470 kts | 74° |
| 2026-05-07 22:04 | 41.11091 | -1.90747 | 22187 ft | 472 kts | 74° |
| 2026-05-07 22:04 | 41.11867 | -1.86556 | 22394 ft | 476 kts | 75° |
| 2026-05-07 22:04 | 41.12655 | -1.82291 | 22696 ft | 477 kts | 75° |
| 2026-05-07 22:04 | 41.13443 | -1.78010 | 22977 ft | 479 kts | 75° |
| 2026-05-07 22:05 | 41.14234 | -1.73702 | 23227 ft | 482 kts | 75° |
| 2026-05-07 22:05 | 41.15027 | -1.69370 | 23488 ft | 485 kts | 75° |
| 2026-05-07 22:05 | 41.15824 | -1.65011 | 23714 ft | 487 kts | 75° |
| 2026-05-07 22:05 | 41.16622 | -1.60634 | 23903 ft | 489 kts | 75° |
| 2026-05-07 22:06 | 41.17413 | -1.56294 | 24107 ft | 492 kts | 75° |
| 2026-05-07 22:06 | 41.18216 | -1.51873 | 24320 ft | 494 kts | 75° |
| 2026-05-07 22:06 | 41.19019 | -1.47447 | 24621 ft | 494 kts | 75° |
| 2026-05-07 22:06 | 41.19822 | -1.43008 | 24819 ft | 496 kts | 75° |
| 2026-05-07 22:07 | 41.20629 | -1.38539 | 25011 ft | 499 kts | 75° |
| 2026-05-07 22:07 | 41.21439 | -1.34045 | 25213 ft | 501 kts | 75° |
| 2026-05-07 22:07 | 41.22249 | -1.29536 | 25413 ft | 504 kts | 75° |
| 2026-05-07 22:07 | 41.23062 | -1.24999 | 25615 ft | 506 kts | 74° |
| 2026-05-07 22:08 | 41.23878 | -1.20440 | 25803 ft | 509 kts | 74° |
| 2026-05-07 22:08 | 41.24695 | -1.15857 | 26033 ft | 510 kts | 74° |
| 2026-05-07 22:08 | 41.25503 | -1.11320 | 26304 ft | 511 kts | 74° |
| 2026-05-07 22:08 | 41.26318 | -1.06725 | 26552 ft | 512 kts | 74° |
| 2026-05-07 22:09 | 41.27137 | -1.02102 | 26767 ft | 515 kts | 74° |
| 2026-05-07 22:09 | 41.27959 | -0.97451 | 26953 ft | 518 kts | 74° |
| 2026-05-07 22:09 | 41.28781 | -0.92784 | 27159 ft | 520 kts | 74° |
| 2026-05-07 22:09 | 41.29605 | -0.88091 | 27359 ft | 522 kts | 74° |
| 2026-05-07 22:10 | 41.30431 | -0.83378 | 27546 ft | 525 kts | 73° |
| 2026-05-07 22:10 | 41.31260 | -0.78638 | 27747 ft | 527 kts | 73° |
| 2026-05-07 22:10 | 41.32089 | -0.73887 | 28022 ft | 527 kts | 75° |
| 2026-05-07 22:10 | 41.32900 | -0.69215 | 28452 ft | 524 kts | 75° |
| 2026-05-07 22:11 | 41.33721 | -0.64478 | 28630 ft | 527 kts | 74° |
| 2026-05-07 22:11 | 41.34544 | -0.59715 | 28780 ft | 530 kts | 75° |
| 2026-05-07 22:11 | 41.35140 | -0.54883 | 29190 ft | 528 kts | 83° |
| 2026-05-07 22:11 | 41.35316 | -0.50020 | 29686 ft | 525 kts | 87° |
| 2026-05-07 22:12 | 41.35370 | -0.45159 | 29940 ft | 526 kts | 88° |
| 2026-05-07 22:12 | 41.35360 | -0.40286 | 30150 ft | 527 kts | 89° |
| 2026-05-07 22:12 | 41.35317 | -0.35399 | 30341 ft | 528 kts | 89° |
| 2026-05-07 22:12 | 41.35261 | -0.30584 | 30551 ft | 528 kts | 89° |
| 2026-05-07 22:13 | 41.35203 | -0.25692 | 30757 ft | 529 kts | 89° |
| 2026-05-07 22:13 | 41.35148 | -0.20796 | 30945 ft | 530 kts | 89° |
| 2026-05-07 22:13 | 41.35095 | -0.15891 | 31151 ft | 530 kts | 89° |
| 2026-05-07 22:13 | 41.35044 | -0.10979 | 31354 ft | 531 kts | 89° |
| 2026-05-07 22:14 | 41.34994 | -0.06069 | 31554 ft | 531 kts | 89° |
| 2026-05-07 22:14 | 41.34943 | -0.01155 | 31754 ft | 532 kts | 89° |
| 2026-05-07 22:14 | 41.34893 | 0.03737 | 32311 ft | 522 kts | 91° |
| 2026-05-07 22:14 | 41.34839 | 0.08526 | 32923 ft | 515 kts | 91° |
| 2026-05-07 22:15 | 41.34722 | 0.18119 | 32873 ft | 525 kts | 90° |
| 2026-05-07 22:15 | 41.34597 | 0.27833 | 33093 ft | 528 kts | 90° |
| 2026-05-07 22:16 | 41.34531 | 0.32714 | 33299 ft | 528 kts | 90° |
| 2026-05-07 22:16 | 41.34464 | 0.37604 | 33431 ft | 529 kts | 90° |
| 2026-05-07 22:16 | 41.34395 | 0.42488 | 33792 ft | 525 kts | 91° |
| 2026-05-07 22:16 | 41.34324 | 0.47340 | 33996 ft | 524 kts | 91° |
| 2026-05-07 22:17 | 41.34173 | 0.57099 | 34010 ft | 530 kts | 91° |
| 2026-05-07 22:17 | 41.34015 | 0.66830 | 34011 ft | 529 kts | 91° |
| 2026-05-07 22:18 | 41.33762 | 0.81491 | 34012 ft | 525 kts | 92° |
| 2026-05-07 22:19 | 41.33587 | 0.91126 | 34015 ft | 518 kts | 92° |
| 2026-05-07 22:19 | 41.33402 | 1.00709 | 34020 ft | 518 kts | 93° |
| 2026-05-07 22:20 | 41.33211 | 1.10227 | 34021 ft | 518 kts | 93° |
| 2026-05-07 22:20 | 41.33012 | 1.19814 | 34023 ft | 517 kts | 94° |
| 2026-05-07 22:21 | 41.32808 | 1.29355 | 34023 ft | 515 kts | 94° |
| 2026-05-07 22:21 | 41.32593 | 1.38885 | 34022 ft | 515 kts | 94° |
| 2026-05-07 22:22 | 41.32372 | 1.48344 | 34021 ft | 515 kts | 94° |
| 2026-05-07 22:22 | 41.32144 | 1.57871 | 34021 ft | 514 kts | 95° |
| 2026-05-07 22:23 | 41.31908 | 1.67343 | 34023 ft | 512 kts | 95° |
| 2026-05-07 22:23 | 41.31663 | 1.76805 | 34025 ft | 512 kts | 95° |
| 2026-05-07 22:24 | 41.31411 | 1.86194 | 34023 ft | 512 kts | 95° |
| 2026-05-07 22:24 | 41.31150 | 1.95650 | 34020 ft | 511 kts | 96° |
| 2026-05-07 22:25 | 41.30883 | 2.05072 | 34020 ft | 509 kts | 96° |
| 2026-05-07 22:25 | 41.30084 | 2.14368 | 34021 ft | 504 kts | 105° |
| 2026-05-07 22:26 | 41.28676 | 2.23478 | 34020 ft | 503 kts | 107° |
| 2026-05-07 22:26 | 41.27168 | 2.32497 | 34018 ft | 503 kts | 107° |
| 2026-05-07 22:27 | 41.25641 | 2.41549 | 34020 ft | 502 kts | 107° |
| 2026-05-07 22:27 | 41.24121 | 2.50593 | 34016 ft | 502 kts | 107° |
| 2026-05-07 22:28 | 41.22601 | 2.59644 | 34012 ft | 502 kts | 107° |
| 2026-05-07 22:28 | 41.21086 | 2.68630 | 34003 ft | 502 kts | 107° |
| 2026-05-07 22:29 | 41.19555 | 2.77663 | 34010 ft | 501 kts | 107° |
| 2026-05-07 22:29 | 41.18017 | 2.86686 | 34009 ft | 501 kts | 108° |
| 2026-05-07 22:30 | 41.16472 | 2.95706 | 34007 ft | 501 kts | 108° |
| 2026-05-07 22:30 | 41.14919 | 3.04724 | 34006 ft | 501 kts | 108° |
| 2026-05-07 22:31 | 41.13371 | 3.13672 | 34009 ft | 500 kts | 108° |
| 2026-05-07 22:31 | 41.11810 | 3.22653 | 34008 ft | 500 kts | 108° |
| 2026-05-07 22:32 | 41.10241 | 3.31631 | 34007 ft | 500 kts | 108° |
| 2026-05-07 22:32 | 41.08664 | 3.40610 | 34009 ft | 500 kts | 108° |
| 2026-05-07 22:33 | 41.07089 | 3.49521 | 34009 ft | 501 kts | 108° |
| 2026-05-07 22:33 | 41.05493 | 3.58523 | 34010 ft | 502 kts | 108° |
| 2026-05-07 22:34 | 41.03890 | 3.67527 | 34007 ft | 502 kts | 108° |
| 2026-05-07 22:34 | 41.02279 | 3.76529 | 34010 ft | 502 kts | 108° |
| 2026-05-07 22:35 | 41.00668 | 3.85471 | 34010 ft | 504 kts | 107° |
| 2026-05-07 22:35 | 40.99016 | 3.94578 | 34014 ft | 513 kts | 107° |
| 2026-05-07 22:36 | 40.97348 | 4.03749 | 34013 ft | 512 kts | 107° |
| 2026-05-07 22:36 | 40.95674 | 4.12910 | 34015 ft | 512 kts | 107° |
| 2026-05-07 22:37 | 40.94004 | 4.22003 | 34014 ft | 511 kts | 107° |
| 2026-05-07 22:37 | 40.92329 | 4.31084 | 34024 ft | 506 kts | 107° |
| 2026-05-07 22:38 | 40.90653 | 4.40121 | 34023 ft | 506 kts | 107° |
| 2026-05-07 22:38 | 40.88970 | 4.49148 | 34020 ft | 506 kts | 107° |
| 2026-05-07 22:39 | 40.87297 | 4.58114 | 33998 ft | 506 kts | 107° |
| 2026-05-07 22:39 | 40.85741 | 4.67173 | 34021 ft | 508 kts | 102° |
| 2026-05-07 22:40 | 40.84773 | 4.76421 | 34017 ft | 509 kts | 100° |
| 2026-05-07 22:40 | 40.83914 | 4.85699 | 34015 ft | 509 kts | 100° |
| 2026-05-07 22:41 | 40.83066 | 4.94976 | 34015 ft | 509 kts | 100° |
| 2026-05-07 22:41 | 40.82208 | 5.04176 | 34018 ft | 508 kts | 101° |
| 2026-05-07 22:42 | 40.81330 | 5.13421 | 34019 ft | 507 kts | 101° |
| 2026-05-07 22:42 | 40.80442 | 5.22661 | 34018 ft | 507 kts | 101° |
| 2026-05-07 22:43 | 40.79547 | 5.31898 | 34017 ft | 507 kts | 101° |
| 2026-05-07 22:43 | 40.78649 | 5.41113 | 34008 ft | 504 kts | 102° |
| 2026-05-07 22:44 | 40.77754 | 5.50205 | 34003 ft | 503 kts | 102° |
| 2026-05-07 22:44 | 40.76847 | 5.59341 | 34006 ft | 503 kts | 102° |
| 2026-05-07 22:45 | 40.75931 | 5.68491 | 34009 ft | 503 kts | 102° |
| 2026-05-07 22:45 | 40.75009 | 5.77623 | 34007 ft | 502 kts | 102° |
| 2026-05-07 22:46 | 40.74088 | 5.86681 | 34003 ft | 502 kts | 102° |
| 2026-05-07 22:46 | 40.73154 | 5.95796 | 34007 ft | 501 kts | 102° |
| 2026-05-07 22:47 | 40.72212 | 6.04901 | 34002 ft | 501 kts | 102° |
| 2026-05-07 22:47 | 40.71264 | 6.13998 | 33995 ft | 500 kts | 103° |
| 2026-05-07 22:48 | 40.70319 | 6.22994 | 33998 ft | 498 kts | 104° |
| 2026-05-07 22:48 | 40.69361 | 6.32034 | 33998 ft | 498 kts | 104° |
| 2026-05-07 22:49 | 40.68396 | 6.41066 | 33993 ft | 498 kts | 104° |
| 2026-05-07 22:49 | 40.67425 | 6.50099 | 33985 ft | 498 kts | 105° |
| 2026-05-07 22:50 | 40.66453 | 6.59075 | 33990 ft | 499 kts | 105° |
| 2026-05-07 22:50 | 40.65466 | 6.68113 | 33986 ft | 499 kts | 105° |
| 2026-05-07 22:51 | 40.64472 | 6.77152 | 33989 ft | 499 kts | 105° |
| 2026-05-07 22:51 | 40.63473 | 6.86172 | 33972 ft | 498 kts | 105° |
| 2026-05-07 22:52 | 40.62466 | 6.95173 | 33982 ft | 501 kts | 105° |
| 2026-05-07 22:52 | 40.61445 | 7.04253 | 33974 ft | 502 kts | 105° |
| 2026-05-07 22:53 | 40.60418 | 7.13333 | 33980 ft | 501 kts | 105° |
| 2026-05-07 22:53 | 40.59385 | 7.22405 | 33973 ft | 501 kts | 105° |
| 2026-05-07 22:54 | 40.58350 | 7.31413 | 33972 ft | 501 kts | 105° |
| 2026-05-07 22:54 | 40.57302 | 7.40472 | 33971 ft | 501 kts | 106° |
| 2026-05-07 22:55 | 40.56679 | 7.49645 | 33966 ft | 512 kts | 94° |
| 2026-05-07 22:55 | 40.57259 | 7.59025 | 33960 ft | 516 kts | 90° |
| 2026-05-07 22:56 | 40.58083 | 7.68434 | 33966 ft | 518 kts | 89° |
| 2026-05-07 22:56 | 40.58927 | 7.77784 | 33964 ft | 518 kts | 89° |
| 2026-05-07 22:57 | 40.59744 | 7.87205 | 33957 ft | 518 kts | 90° |
| 2026-05-07 22:57 | 40.60537 | 7.96628 | 33951 ft | 518 kts | 90° |
| 2026-05-07 22:58 | 40.61317 | 8.06043 | 33947 ft | 518 kts | 89° |
| 2026-05-07 22:58 | 40.62088 | 8.15412 | 33945 ft | 518 kts | 89° |
| 2026-05-07 22:59 | 40.63242 | 8.24828 | 33938 ft | 529 kts | 78° |
| 2026-05-07 22:59 | 40.65797 | 8.33965 | 33938 ft | 534 kts | 72° |
| 2026-05-07 23:00 | 40.68663 | 8.43002 | 33934 ft | 535 kts | 70° |
| 2026-05-07 23:00 | 40.71546 | 8.51958 | 33953 ft | 534 kts | 71° |
| 2026-05-07 23:01 | 40.74421 | 8.61000 | 33958 ft | 534 kts | 71° |
| 2026-05-07 23:01 | 40.77266 | 8.70044 | 33956 ft | 534 kts | 71° |
| 2026-05-07 23:02 | 40.80095 | 8.79087 | 33963 ft | 531 kts | 70° |
| 2026-05-07 23:02 | 40.82899 | 8.88080 | 33959 ft | 535 kts | 70° |
| 2026-05-07 23:03 | 40.85731 | 8.97195 | 33965 ft | 536 kts | 71° |
| 2026-05-07 23:03 | 40.88554 | 9.06306 | 33965 ft | 536 kts | 71° |
| 2026-05-07 23:04 | 40.91367 | 9.15421 | 33983 ft | 535 kts | 70° |
| 2026-05-07 23:04 | 40.94151 | 9.24465 | 33973 ft | 534 kts | 70° |
| 2026-05-07 23:05 | 40.96943 | 9.33566 | 33977 ft | 534 kts | 70° |
| 2026-05-07 23:05 | 40.99735 | 9.42701 | 33991 ft | 537 kts | 70° |
| 2026-05-07 23:06 | 41.02532 | 9.51879 | 33994 ft | 537 kts | 70° |
| 2026-05-07 23:06 | 41.05294 | 9.60976 | 33989 ft | 535 kts | 70° |
| 2026-05-07 23:07 | 41.08064 | 9.70133 | 33983 ft | 535 kts | 70° |
| 2026-05-07 23:07 | 41.10823 | 9.79285 | 33964 ft | 535 kts | 70° |
| 2026-05-07 23:08 | 41.13578 | 9.88458 | 33972 ft | 537 kts | 70° |
| 2026-05-07 23:08 | 41.16317 | 9.97610 | 33974 ft | 538 kts | 70° |
| 2026-05-07 23:09 | 41.19072 | 10.06841 | 33971 ft | 538 kts | 70° |
| 2026-05-07 23:09 | 41.21817 | 10.16073 | 33966 ft | 538 kts | 70° |
| 2026-05-07 23:10 | 41.24557 | 10.25321 | 33965 ft | 539 kts | 70° |
| 2026-05-07 23:10 | 41.27301 | 10.34619 | 33969 ft | 541 kts | 70° |
| 2026-05-07 23:11 | 41.30024 | 10.43876 | 33965 ft | 541 kts | 70° |
| 2026-05-07 23:11 | 41.32756 | 10.53196 | 33966 ft | 540 kts | 70° |
| 2026-05-07 23:12 | 41.35480 | 10.62520 | 33960 ft | 541 kts | 70° |
| 2026-05-07 23:12 | 41.38198 | 10.71864 | 33963 ft | 542 kts | 70° |
| 2026-05-07 23:13 | 41.40895 | 10.81163 | 33963 ft | 542 kts | 70° |
| 2026-05-07 23:13 | 41.43602 | 10.90533 | 33955 ft | 542 kts | 70° |
| 2026-05-07 23:14 | 41.46299 | 10.99905 | 33970 ft | 542 kts | 70° |
| 2026-05-07 23:14 | 41.48990 | 11.09285 | 33952 ft | 541 kts | 70° |
| 2026-05-07 23:15 | 41.51670 | 11.18666 | 33953 ft | 541 kts | 70° |
| 2026-05-07 23:15 | 41.54347 | 11.28067 | 33955 ft | 542 kts | 71° |
| 2026-05-07 23:16 | 41.56997 | 11.37411 | 33951 ft | 542 kts | 70° |
| 2026-05-07 23:16 | 41.59657 | 11.46824 | 33944 ft | 542 kts | 71° |
| 2026-05-07 23:17 | 41.62312 | 11.56251 | 33950 ft | 542 kts | 71° |
| 2026-05-07 23:17 | 41.64961 | 11.65696 | 33941 ft | 543 kts | 71° |
| 2026-05-07 23:18 | 41.67589 | 11.75099 | 33936 ft | 543 kts | 71° |
| 2026-05-07 23:18 | 41.70221 | 11.84553 | 33961 ft | 543 kts | 71° |
| 2026-05-07 23:19 | 41.72851 | 11.94035 | 34004 ft | 543 kts | 71° |
| 2026-05-07 23:19 | 41.75470 | 12.03512 | 34047 ft | 543 kts | 71° |
| 2026-05-07 23:20 | 41.78064 | 12.12938 | 34077 ft | 543 kts | 71° |
| 2026-05-07 23:20 | 41.80672 | 12.22449 | 33911 ft | 544 kts | 71° |
| 2026-05-07 23:21 | 41.83273 | 12.31966 | 33910 ft | 544 kts | 71° |
| 2026-05-07 23:21 | 41.85865 | 12.41489 | 33924 ft | 544 kts | 71° |
| 2026-05-07 23:22 | 41.88432 | 12.50960 | 33932 ft | 544 kts | 71° |
| 2026-05-07 23:22 | 41.91009 | 12.60501 | 33932 ft | 544 kts | 71° |
| 2026-05-07 23:23 | 41.93574 | 12.70042 | 33944 ft | 543 kts | 71° |
| 2026-05-07 23:23 | 41.96134 | 12.79591 | 33948 ft | 543 kts | 71° |
| 2026-05-07 23:24 | 41.98683 | 12.89141 | 33961 ft | 543 kts | 71° |
| 2026-05-07 23:24 | 42.01207 | 12.98630 | 33967 ft | 543 kts | 71° |
| 2026-05-07 23:25 | 42.03741 | 13.08199 | 33987 ft | 543 kts | 71° |
| 2026-05-07 23:25 | 42.06264 | 13.17764 | 33986 ft | 543 kts | 71° |
| 2026-05-07 23:26 | 42.08782 | 13.27347 | 34002 ft | 543 kts | 71° |
| 2026-05-07 23:26 | 42.11275 | 13.36870 | 34019 ft | 543 kts | 71° |
| 2026-05-07 23:27 | 42.15026 | 13.51271 | 34007 ft | 543 kts | 71° |
| 2026-05-07 23:27 | 42.17523 | 13.60909 | 34024 ft | 546 kts | 71° |
| 2026-05-07 23:28 | 42.20005 | 13.70522 | 34047 ft | 546 kts | 71° |
| 2026-05-07 23:28 | 42.22476 | 13.80142 | 34024 ft | 540 kts | 71° |
| 2026-05-07 23:29 | 42.24928 | 13.89715 | 34020 ft | 541 kts | 71° |
| 2026-05-07 23:29 | 42.27383 | 13.99345 | 34022 ft | 543 kts | 71° |
| 2026-05-07 23:30 | 42.29835 | 14.08999 | 34020 ft | 543 kts | 71° |
| 2026-05-07 23:30 | 42.32261 | 14.18587 | 34019 ft | 543 kts | 71° |
| 2026-05-07 23:31 | 42.34697 | 14.28260 | 34024 ft | 543 kts | 71° |
| 2026-05-07 23:31 | 42.37109 | 14.37878 | 34017 ft | 538 kts | 71° |
| 2026-05-07 23:32 | 42.39501 | 14.47451 | 34013 ft | 537 kts | 71° |
| 2026-05-07 23:32 | 42.41869 | 14.56967 | 34005 ft | 537 kts | 71° |
| 2026-05-07 23:33 | 42.44245 | 14.66554 | 33994 ft | 537 kts | 71° |
| 2026-05-07 23:33 | 42.46613 | 14.76152 | 33993 ft | 537 kts | 71° |
| 2026-05-07 23:34 | 42.48971 | 14.85744 | 33993 ft | 534 kts | 72° |
| 2026-05-07 23:34 | 42.51290 | 14.95220 | 33985 ft | 533 kts | 72° |
| 2026-05-07 23:35 | 42.53618 | 15.04770 | 33996 ft | 534 kts | 72° |
| 2026-05-07 23:35 | 42.55938 | 15.14331 | 33996 ft | 534 kts | 72° |
| 2026-05-07 23:36 | 42.58250 | 15.23896 | 34001 ft | 533 kts | 72° |
| 2026-05-07 23:36 | 42.60539 | 15.33404 | 34009 ft | 534 kts | 72° |
| 2026-05-07 23:37 | 42.62833 | 15.42972 | 34004 ft | 532 kts | 72° |
| 2026-05-07 23:37 | 42.65115 | 15.52531 | 34007 ft | 532 kts | 72° |
| 2026-05-07 23:38 | 42.67389 | 15.62101 | 34007 ft | 532 kts | 72° |
| 2026-05-07 23:38 | 42.69653 | 15.71669 | 34012 ft | 532 kts | 73° |
| 2026-05-07 23:39 | 42.71470 | 15.81414 | 34015 ft | 532 kts | 78° |
| 2026-05-07 23:39 | 42.73073 | 15.91156 | 34020 ft | 531 kts | 79° |
| 2026-05-07 23:40 | 42.74641 | 16.00968 | 34003 ft | 531 kts | 79° |
| 2026-05-07 23:40 | 42.76202 | 16.10781 | 34023 ft | 530 kts | 79° |
| 2026-05-07 23:41 | 42.77763 | 16.20597 | 34026 ft | 530 kts | 79° |
| 2026-05-07 23:41 | 42.79306 | 16.30347 | 34029 ft | 530 kts | 79° |
| 2026-05-07 23:42 | 42.80852 | 16.40165 | 34033 ft | 531 kts | 79° |
| 2026-05-07 23:42 | 42.82390 | 16.49998 | 34034 ft | 531 kts | 79° |
| 2026-05-07 23:43 | 42.83922 | 16.59843 | 34034 ft | 532 kts | 79° |
| 2026-05-07 23:43 | 42.85436 | 16.69640 | 34042 ft | 532 kts | 79° |
| 2026-05-07 23:44 | 42.86951 | 16.79504 | 34042 ft | 532 kts | 79° |
| 2026-05-07 23:44 | 42.88458 | 16.89376 | 34042 ft | 532 kts | 79° |
| 2026-05-07 23:45 | 42.89958 | 16.99258 | 34048 ft | 532 kts | 79° |
| 2026-05-07 23:45 | 42.91439 | 17.09075 | 34049 ft | 533 kts | 79° |
| 2026-05-07 23:46 | 42.92927 | 17.19005 | 34060 ft | 535 kts | 79° |
| 2026-05-07 23:46 | 42.94409 | 17.28948 | 34053 ft | 535 kts | 79° |
| 2026-05-07 23:47 | 42.95883 | 17.38901 | 34043 ft | 535 kts | 80° |
| 2026-05-07 23:47 | 42.97347 | 17.48874 | 34062 ft | 536 kts | 79° |
| 2026-05-07 23:48 | 42.98797 | 17.58781 | 34059 ft | 535 kts | 79° |
| 2026-05-07 23:48 | 43.00248 | 17.68762 | 34071 ft | 536 kts | 79° |
| 2026-05-07 23:49 | 43.01687 | 17.78745 | 34070 ft | 536 kts | 79° |
| 2026-05-07 23:49 | 43.03119 | 17.88752 | 34078 ft | 537 kts | 79° |
| 2026-05-07 23:50 | 43.04539 | 17.98714 | 34083 ft | 538 kts | 79° |
| 2026-05-07 23:50 | 43.05961 | 18.08754 | 34087 ft | 538 kts | 79° |
| 2026-05-07 23:51 | 43.07371 | 18.18792 | 34105 ft | 538 kts | 80° |
| 2026-05-07 23:51 | 43.08774 | 18.28845 | 34108 ft | 538 kts | 80° |
| 2026-05-07 23:52 | 43.10159 | 18.38823 | 34107 ft | 538 kts | 80° |
| 2026-05-07 23:52 | 43.11544 | 18.48880 | 34117 ft | 539 kts | 80° |
| 2026-05-07 23:53 | 43.12926 | 18.58985 | 34116 ft | 540 kts | 80° |
| 2026-05-07 23:53 | 43.14301 | 18.69105 | 34114 ft | 540 kts | 80° |
| 2026-05-07 23:54 | 43.15657 | 18.79156 | 34105 ft | 540 kts | 80° |
| 2026-05-07 23:54 | 43.17016 | 18.89293 | 34114 ft | 542 kts | 80° |
| 2026-05-07 23:55 | 43.18365 | 18.99437 | 34109 ft | 542 kts | 81° |
| 2026-05-07 23:55 | 43.19707 | 19.09597 | 34110 ft | 542 kts | 80° |
| 2026-05-07 23:56 | 43.21031 | 19.19682 | 34113 ft | 542 kts | 80° |
| 2026-05-07 23:56 | 43.22353 | 19.29846 | 34115 ft | 541 kts | 81° |
| 2026-05-07 23:57 | 43.23667 | 19.40011 | 34117 ft | 541 kts | 81° |
| 2026-05-07 23:57 | 43.24970 | 19.50174 | 34114 ft | 541 kts | 80° |
| 2026-05-07 23:58 | 43.26257 | 19.60276 | 34117 ft | 542 kts | 80° |
| 2026-05-07 23:58 | 43.27545 | 19.70460 | 34121 ft | 542 kts | 81° |
| 2026-05-07 23:59 | 43.28825 | 19.80655 | 34117 ft | 542 kts | 81° |
| 2026-05-07 23:59 | 43.30095 | 19.90849 | 34119 ft | 542 kts | 80° |
| 2026-05-08 00:00 | 43.31347 | 20.00975 | 34115 ft | 542 kts | 81° |
| 2026-05-08 00:00 | 43.32599 | 20.11179 | 34116 ft | 542 kts | 81° |
| 2026-05-08 00:01 | 43.33842 | 20.21386 | 34113 ft | 542 kts | 81° |
| 2026-05-08 00:01 | 43.35076 | 20.31601 | 34106 ft | 541 kts | 80° |
| 2026-05-08 00:02 | 43.36288 | 20.41716 | 34118 ft | 540 kts | 81° |
| 2026-05-08 00:02 | 43.37498 | 20.51887 | 34103 ft | 539 kts | 81° |
| 2026-05-08 00:03 | 43.38698 | 20.62056 | 34110 ft | 539 kts | 81° |
| 2026-05-08 00:03 | 43.39890 | 20.72240 | 34096 ft | 539 kts | 80° |
| 2026-05-08 00:04 | 43.41051 | 20.82418 | 34099 ft | 539 kts | 83° |
| 2026-05-08 00:04 | 43.40856 | 20.92589 | 34093 ft | 536 kts | 103° |
| 2026-05-08 00:05 | 43.38959 | 21.02476 | 34091 ft | 535 kts | 109° |
| 2026-05-08 00:05 | 43.36726 | 21.12229 | 34088 ft | 535 kts | 110° |
| 2026-05-08 00:06 | 43.34455 | 21.21964 | 34089 ft | 535 kts | 110° |
| 2026-05-08 00:06 | 43.32209 | 21.31711 | 34088 ft | 535 kts | 109° |
| 2026-05-08 00:07 | 43.29992 | 21.41394 | 34087 ft | 536 kts | 109° |
| 2026-05-08 00:07 | 43.27752 | 21.51154 | 34096 ft | 536 kts | 109° |
| 2026-05-08 00:08 | 43.25883 | 21.59268 | 34083 ft | 536 kts | 110° |
| 2026-05-08 00:08 | 43.23626 | 21.69014 | 34081 ft | 536 kts | 110° |
| 2026-05-08 00:09 | 43.20992 | 21.80332 | 34078 ft | 536 kts | 110° |
| 2026-05-08 00:09 | 43.18718 | 21.90058 | 34080 ft | 536 kts | 110° |
| 2026-05-08 00:10 | 43.16821 | 21.98144 | 34085 ft | 536 kts | 110° |
| 2026-05-08 00:10 | 43.14531 | 22.07861 | 34093 ft | 537 kts | 110° |
| 2026-05-08 00:11 | 43.11849 | 22.19183 | 34107 ft | 538 kts | 110° |
| 2026-05-08 00:11 | 43.09531 | 22.28929 | 34124 ft | 538 kts | 110° |
| 2026-05-08 00:12 | 43.07601 | 22.37015 | 34122 ft | 538 kts | 110° |
| 2026-05-08 00:12 | 43.05263 | 22.46764 | 34131 ft | 540 kts | 110° |
| 2026-05-08 00:13 | 43.02529 | 22.58111 | 34134 ft | 541 kts | 110° |
| 2026-05-08 00:13 | 43.00553 | 22.66282 | 34139 ft | 541 kts | 110° |
| 2026-05-08 00:14 | 42.98251 | 22.75989 | 34128 ft | 541 kts | 106° |
| 2026-05-08 00:14 | 42.97323 | 22.86183 | 34125 ft | 543 kts | 91° |
| 2026-05-08 00:15 | 42.97268 | 22.96494 | 34135 ft | 543 kts | 89° |
| 2026-05-08 00:15 | 42.97357 | 23.06807 | 34119 ft | 543 kts | 89° |
| 2026-05-08 00:16 | 42.97427 | 23.17048 | 34112 ft | 543 kts | 89° |
| 2026-05-08 00:16 | 42.97458 | 23.27343 | 34116 ft | 541 kts | 89° |
| 2026-05-08 00:17 | 42.97470 | 23.37622 | 34104 ft | 541 kts | 89° |
| 2026-05-08 00:17 | 42.97470 | 23.47894 | 34093 ft | 541 kts | 89° |
| 2026-05-08 00:18 | 42.97462 | 23.58118 | 34102 ft | 543 kts | 89° |
| 2026-05-08 00:18 | 42.97445 | 23.68420 | 34104 ft | 543 kts | 89° |
| 2026-05-08 00:19 | 42.97420 | 23.78731 | 34099 ft | 543 kts | 89° |
| 2026-05-08 00:19 | 42.97384 | 23.89042 | 34084 ft | 544 kts | 89° |
| 2026-05-08 00:20 | 42.97340 | 23.99321 | 34080 ft | 545 kts | 89° |
| 2026-05-08 00:20 | 42.97287 | 24.09664 | 34095 ft | 545 kts | 89° |
| 2026-05-08 00:21 | 42.97224 | 24.20013 | 34077 ft | 545 kts | 89° |
| 2026-05-08 00:21 | 42.97151 | 24.30358 | 34082 ft | 545 kts | 89° |
| 2026-05-08 00:22 | 42.97070 | 24.40624 | 34084 ft | 544 kts | 89° |
| 2026-05-08 00:22 | 42.96981 | 24.50960 | 34084 ft | 544 kts | 89° |
| 2026-05-08 00:23 | 42.96881 | 24.61291 | 34083 ft | 544 kts | 89° |
| 2026-05-08 00:23 | 42.96771 | 24.71591 | 34083 ft | 542 kts | 89° |
| 2026-05-08 00:24 | 42.96655 | 24.81795 | 34080 ft | 542 kts | 89° |
| 2026-05-08 00:24 | 42.96527 | 24.92076 | 34082 ft | 541 kts | 89° |
| 2026-05-08 00:25 | 42.96392 | 25.02341 | 34085 ft | 538 kts | 90° |
| 2026-05-08 00:25 | 42.96248 | 25.12502 | 34083 ft | 533 kts | 90° |
| 2026-05-08 00:26 | 42.96096 | 25.22544 | 34084 ft | 533 kts | 90° |
| 2026-05-08 00:26 | 42.95935 | 25.32654 | 34085 ft | 533 kts | 90° |
| 2026-05-08 00:27 | 42.95766 | 25.42764 | 34076 ft | 533 kts | 90° |
| 2026-05-08 00:27 | 42.95588 | 25.52877 | 34081 ft | 533 kts | 90° |
| 2026-05-08 00:28 | 42.95402 | 25.62924 | 34079 ft | 533 kts | 90° |
| 2026-05-08 00:28 | 42.95205 | 25.73046 | 34075 ft | 533 kts | 90° |
| 2026-05-08 00:29 | 42.94999 | 25.83161 | 34076 ft | 532 kts | 90° |
| 2026-05-08 00:29 | 42.94786 | 25.93234 | 34078 ft | 529 kts | 91° |
| 2026-05-08 00:30 | 42.94566 | 26.03174 | 34079 ft | 527 kts | 91° |
| 2026-05-08 00:30 | 42.94337 | 26.13162 | 34084 ft | 527 kts | 91° |
| 2026-05-08 00:31 | 42.94100 | 26.23134 | 34086 ft | 525 kts | 91° |
| 2026-05-08 00:31 | 42.93854 | 26.33076 | 34087 ft | 524 kts | 91° |
| 2026-05-08 00:32 | 42.93602 | 26.42948 | 34086 ft | 524 kts | 91° |
| 2026-05-08 00:32 | 42.93341 | 26.52885 | 34080 ft | 524 kts | 91° |
| 2026-05-08 00:33 | 42.93070 | 26.62794 | 34090 ft | 520 kts | 91° |
| 2026-05-08 00:33 | 42.92793 | 26.72642 | 34088 ft | 519 kts | 91° |
| 2026-05-08 00:34 | 42.92512 | 26.82404 | 34094 ft | 516 kts | 92° |
| 2026-05-08 00:34 | 42.92221 | 26.92167 | 34099 ft | 514 kts | 93° |
| 2026-05-08 00:35 | 42.91922 | 27.01874 | 34093 ft | 511 kts | 93° |
| 2026-05-08 00:35 | 42.91617 | 27.11543 | 34096 ft | 510 kts | 93° |
| 2026-05-08 00:36 | 42.91306 | 27.21144 | 34097 ft | 510 kts | 93° |
| 2026-05-08 00:36 | 42.90985 | 27.30813 | 34097 ft | 510 kts | 93° |
| 2026-05-08 00:37 | 42.90657 | 27.40456 | 34096 ft | 508 kts | 93° |
| 2026-05-08 00:38 | 42.90150 | 27.54881 | 34099 ft | 508 kts | 93° |
| 2026-05-08 00:38 | 42.89804 | 27.64439 | 34097 ft | 508 kts | 94° |
| 2026-05-08 00:39 | 42.89448 | 27.74054 | 34094 ft | 508 kts | 94° |
| 2026-05-08 00:39 | 42.89085 | 27.83663 | 34093 ft | 508 kts | 94° |
| 2026-05-08 00:40 | 42.88713 | 27.93285 | 34100 ft | 508 kts | 94° |
| 2026-05-08 00:40 | 42.88334 | 28.02838 | 34098 ft | 508 kts | 94° |
| 2026-05-08 00:41 | 42.87907 | 28.12447 | 34098 ft | 508 kts | 94° |
| 2026-05-08 00:41 | 42.87456 | 28.22068 | 34097 ft | 509 kts | 94° |
| 2026-05-08 00:42 | 42.86999 | 28.31692 | 34095 ft | 509 kts | 94° |
| 2026-05-08 00:42 | 42.86540 | 28.41253 | 34099 ft | 509 kts | 94° |
| 2026-05-08 00:43 | 42.86070 | 28.50872 | 34097 ft | 509 kts | 94° |
| 2026-05-08 00:43 | 42.85592 | 28.60520 | 34102 ft | 511 kts | 94° |
| 2026-05-08 00:44 | 42.85105 | 28.70186 | 34102 ft | 511 kts | 94° |
| 2026-05-08 00:44 | 42.84610 | 28.79847 | 34105 ft | 511 kts | 94° |
| 2026-05-08 00:45 | 42.84109 | 28.89448 | 34102 ft | 511 kts | 94° |
| 2026-05-08 00:45 | 42.83598 | 28.99105 | 34105 ft | 511 kts | 94° |
| 2026-05-08 00:46 | 42.83078 | 29.08774 | 34102 ft | 512 kts | 94° |
| 2026-05-08 00:46 | 42.82550 | 29.18437 | 34102 ft | 512 kts | 94° |
| 2026-05-08 00:47 | 42.82017 | 29.28030 | 34109 ft | 512 kts | 94° |
| 2026-05-08 00:47 | 42.81472 | 29.37695 | 34107 ft | 512 kts | 94° |
| 2026-05-08 00:48 | 42.80920 | 29.47351 | 34096 ft | 512 kts | 94° |
| 2026-05-08 00:48 | 42.80359 | 29.57007 | 34104 ft | 511 kts | 94° |
| 2026-05-08 00:49 | 42.79793 | 29.66598 | 34104 ft | 511 kts | 94° |
| 2026-05-08 00:49 | 42.79217 | 29.76248 | 34111 ft | 512 kts | 94° |
| 2026-05-08 00:50 | 42.78632 | 29.85902 | 34107 ft | 512 kts | 94° |
| 2026-05-08 00:50 | 42.78039 | 29.95550 | 34106 ft | 512 kts | 94° |
| 2026-05-08 00:51 | 42.77438 | 30.05194 | 34105 ft | 511 kts | 93° |
| 2026-05-08 00:51 | 42.76833 | 30.14777 | 34111 ft | 511 kts | 94° |
| 2026-05-08 00:52 | 42.76216 | 30.24420 | 34116 ft | 511 kts | 94° |
| 2026-05-08 00:52 | 42.75591 | 30.34056 | 34121 ft | 512 kts | 94° |
| 2026-05-08 00:53 | 42.74955 | 30.43715 | 34117 ft | 513 kts | 93° |
| 2026-05-08 00:53 | 42.74316 | 30.53327 | 34122 ft | 514 kts | 93° |
| 2026-05-08 00:54 | 42.73125 | 30.62921 | 34114 ft | 517 kts | 103° |
| 2026-05-08 00:54 | 42.71190 | 30.72344 | 34129 ft | 517 kts | 105° |
| 2026-05-08 00:55 | 42.69115 | 30.81743 | 34119 ft | 521 kts | 105° |
| 2026-05-08 00:55 | 42.67035 | 30.91103 | 34118 ft | 521 kts | 105° |
| 2026-05-08 00:56 | 42.64948 | 31.00539 | 34121 ft | 521 kts | 104° |
| 2026-05-08 00:56 | 42.62864 | 31.09963 | 34122 ft | 522 kts | 104° |
| 2026-05-08 00:57 | 42.60770 | 31.19403 | 34124 ft | 522 kts | 104° |
| 2026-05-08 00:57 | 42.58666 | 31.28847 | 34124 ft | 523 kts | 104° |
| 2026-05-08 00:58 | 42.56567 | 31.38221 | 34136 ft | 523 kts | 104° |
| 2026-05-08 00:58 | 42.54446 | 31.47651 | 34124 ft | 523 kts | 104° |
| 2026-05-08 00:59 | 42.52318 | 31.57072 | 34124 ft | 523 kts | 104° |
| 2026-05-08 00:59 | 42.50197 | 31.66422 | 34124 ft | 523 kts | 104° |
| 2026-05-08 01:00 | 42.48055 | 31.75823 | 34124 ft | 522 kts | 104° |
| 2026-05-08 01:00 | 42.45903 | 31.85229 | 34127 ft | 523 kts | 104° |
| 2026-05-08 01:01 | 42.43744 | 31.94626 | 34127 ft | 523 kts | 104° |
| 2026-05-08 01:01 | 42.41578 | 32.04012 | 34131 ft | 522 kts | 104° |
| 2026-05-08 01:02 | 42.39421 | 32.13322 | 34123 ft | 522 kts | 104° |
| 2026-05-08 01:02 | 42.37243 | 32.22686 | 34119 ft | 522 kts | 104° |
| 2026-05-08 01:03 | 42.35057 | 32.32041 | 34119 ft | 522 kts | 104° |
| 2026-05-08 01:03 | 42.32863 | 32.41393 | 34121 ft | 522 kts | 104° |
| 2026-05-08 01:04 | 42.30675 | 32.50679 | 34129 ft | 522 kts | 104° |
| 2026-05-08 01:04 | 42.28472 | 32.59992 | 34121 ft | 520 kts | 104° |
| 2026-05-08 01:05 | 42.26264 | 32.69286 | 34122 ft | 520 kts | 104° |
| 2026-05-08 01:05 | 42.24062 | 32.78519 | 34121 ft | 520 kts | 104° |
| 2026-05-08 01:06 | 42.21839 | 32.87804 | 34119 ft | 520 kts | 104° |
| 2026-05-08 01:06 | 42.19606 | 32.97089 | 34132 ft | 520 kts | 104° |
| 2026-05-08 01:07 | 42.17370 | 33.06346 | 34124 ft | 519 kts | 105° |
| 2026-05-08 01:07 | 42.15129 | 33.15592 | 34124 ft | 519 kts | 105° |
| 2026-05-08 01:08 | 42.12896 | 33.24766 | 34111 ft | 519 kts | 105° |
| 2026-05-08 01:08 | 42.10641 | 33.33995 | 34134 ft | 518 kts | 105° |
| 2026-05-08 01:09 | 42.08382 | 33.43203 | 34132 ft | 518 kts | 105° |
| 2026-05-08 01:09 | 42.06116 | 33.52401 | 34146 ft | 518 kts | 105° |
| 2026-05-08 01:10 | 42.03859 | 33.61530 | 34153 ft | 518 kts | 104° |
| 2026-05-08 01:10 | 42.01578 | 33.70716 | 34141 ft | 518 kts | 105° |
| 2026-05-08 01:11 | 41.99291 | 33.79894 | 34146 ft | 518 kts | 105° |
| 2026-05-08 01:11 | 41.96995 | 33.89073 | 34151 ft | 518 kts | 105° |
| 2026-05-08 01:12 | 41.94690 | 33.98247 | 34141 ft | 518 kts | 105° |
| 2026-05-08 01:12 | 41.92394 | 34.07353 | 34143 ft | 519 kts | 105° |
| 2026-05-08 01:13 | 41.90073 | 34.16519 | 34141 ft | 519 kts | 105° |
| 2026-05-08 01:13 | 41.87745 | 34.25684 | 34148 ft | 518 kts | 105° |
| 2026-05-08 01:14 | 41.85412 | 34.34828 | 34153 ft | 518 kts | 105° |
| 2026-05-08 01:14 | 41.83088 | 34.43902 | 34150 ft | 518 kts | 105° |
| 2026-05-08 01:15 | 41.80741 | 34.53032 | 34162 ft | 518 kts | 105° |
| 2026-05-08 01:15 | 41.78388 | 34.62154 | 34152 ft | 518 kts | 105° |
| 2026-05-08 01:16 | 41.76029 | 34.71266 | 34157 ft | 518 kts | 105° |
| 2026-05-08 01:16 | 41.73679 | 34.80303 | 34157 ft | 517 kts | 105° |
| 2026-05-08 01:17 | 41.71306 | 34.89393 | 34154 ft | 517 kts | 106° |
| 2026-05-08 01:17 | 41.68930 | 34.98463 | 34145 ft | 516 kts | 106° |
| 2026-05-08 01:18 | 41.66556 | 35.07493 | 34144 ft | 514 kts | 106° |
| 2026-05-08 01:18 | 41.64178 | 35.16502 | 34148 ft | 513 kts | 107° |
| 2026-05-08 01:19 | 41.61819 | 35.25415 | 34143 ft | 512 kts | 107° |
| 2026-05-08 01:19 | 41.59440 | 35.34370 | 34141 ft | 512 kts | 107° |
| 2026-05-08 01:20 | 41.57052 | 35.43324 | 34158 ft | 512 kts | 107° |
| 2026-05-08 01:20 | 41.54659 | 35.52254 | 34139 ft | 510 kts | 107° |
| 2026-05-08 01:21 | 41.52278 | 35.61108 | 34138 ft | 510 kts | 107° |
| 2026-05-08 01:21 | 41.49876 | 35.70015 | 34142 ft | 510 kts | 107° |
| 2026-05-08 01:22 | 41.47467 | 35.78917 | 34147 ft | 510 kts | 107° |
| 2026-05-08 01:22 | 41.45051 | 35.87812 | 34149 ft | 510 kts | 107° |
| 2026-05-08 01:23 | 41.42645 | 35.96636 | 34152 ft | 510 kts | 107° |
| 2026-05-08 01:23 | 41.40215 | 36.05519 | 34150 ft | 510 kts | 107° |
| 2026-05-08 01:24 | 41.37782 | 36.14381 | 34156 ft | 509 kts | 107° |
| 2026-05-08 01:24 | 41.35345 | 36.23226 | 34159 ft | 509 kts | 107° |
| 2026-05-08 01:25 | 41.32898 | 36.32073 | 34186 ft | 509 kts | 108° |
| 2026-05-08 01:25 | 41.30465 | 36.40839 | 34170 ft | 509 kts | 108° |
| 2026-05-08 01:26 | 41.28138 | 36.49710 | 34171 ft | 506 kts | 101° |
| 2026-05-08 01:26 | 41.27395 | 36.58906 | 34184 ft | 498 kts | 83° |
| 2026-05-08 01:27 | 41.28377 | 36.67900 | 34187 ft | 494 kts | 76° |
| 2026-05-08 01:27 | 41.29718 | 36.76845 | 34180 ft | 492 kts | 75° |
| 2026-05-08 01:28 | 41.31084 | 36.85759 | 34177 ft | 492 kts | 75° |
| 2026-05-08 01:28 | 41.32412 | 36.94696 | 34176 ft | 492 kts | 76° |
| 2026-05-08 01:29 | 41.33710 | 37.03642 | 34173 ft | 492 kts | 76° |
| 2026-05-08 01:29 | 41.34986 | 37.12522 | 34174 ft | 492 kts | 76° |
| 2026-05-08 01:30 | 41.36262 | 37.21452 | 34178 ft | 491 kts | 76° |
| 2026-05-08 01:30 | 41.37531 | 37.30380 | 34176 ft | 491 kts | 76° |
| 2026-05-08 01:31 | 41.38796 | 37.39317 | 34176 ft | 491 kts | 76° |
| 2026-05-08 01:31 | 41.40044 | 37.48195 | 34176 ft | 491 kts | 76° |
| 2026-05-08 01:32 | 41.41292 | 37.57122 | 34175 ft | 490 kts | 77° |
| 2026-05-08 01:32 | 41.42531 | 37.66039 | 34176 ft | 489 kts | 77° |
| 2026-05-08 01:33 | 41.43763 | 37.74953 | 34193 ft | 489 kts | 77° |
| 2026-05-08 01:33 | 41.44980 | 37.83813 | 34179 ft | 490 kts | 77° |
| 2026-05-08 01:34 | 41.46199 | 37.92746 | 34191 ft | 489 kts | 77° |
| 2026-05-08 01:34 | 41.47406 | 38.01645 | 34178 ft | 487 kts | 77° |
| 2026-05-08 01:35 | 41.48604 | 38.10526 | 34184 ft | 486 kts | 77° |
| 2026-05-08 01:35 | 41.49786 | 38.19346 | 34172 ft | 487 kts | 77° |
| 2026-05-08 01:36 | 41.50971 | 38.28236 | 34195 ft | 487 kts | 77° |
| 2026-05-08 01:36 | 41.52147 | 38.37122 | 34183 ft | 486 kts | 77° |
| 2026-05-08 01:37 | 41.53315 | 38.45998 | 34185 ft | 485 kts | 77° |
| 2026-05-08 01:37 | 41.54475 | 38.54866 | 34183 ft | 485 kts | 77° |
| 2026-05-08 01:38 | 41.55620 | 38.63680 | 34184 ft | 485 kts | 77° |
| 2026-05-08 01:38 | 41.56768 | 38.72564 | 34192 ft | 485 kts | 78° |
| 2026-05-08 01:39 | 41.57904 | 38.81416 | 34183 ft | 483 kts | 78° |
| 2026-05-08 01:39 | 41.59034 | 38.90274 | 34190 ft | 485 kts | 78° |
| 2026-05-08 01:40 | 41.60153 | 38.99102 | 34189 ft | 485 kts | 78° |
| 2026-05-08 01:40 | 41.61272 | 39.07997 | 34186 ft | 485 kts | 78° |
| 2026-05-08 01:41 | 41.62385 | 39.16893 | 34186 ft | 485 kts | 78° |
| 2026-05-08 01:41 | 41.63490 | 39.25788 | 34189 ft | 485 kts | 78° |
| 2026-05-08 01:42 | 41.64583 | 39.34638 | 34187 ft | 485 kts | 78° |
| 2026-05-08 01:42 | 41.65676 | 39.43550 | 34187 ft | 487 kts | 78° |
| 2026-05-08 01:43 | 41.66767 | 39.52501 | 34196 ft | 488 kts | 78° |
| 2026-05-08 01:43 | 41.67849 | 39.61441 | 34183 ft | 486 kts | 78° |
| 2026-05-08 01:44 | 41.68922 | 39.70371 | 34189 ft | 486 kts | 78° |
| 2026-05-08 01:44 | 41.69982 | 39.79244 | 34186 ft | 486 kts | 78° |
| 2026-05-08 01:45 | 41.71041 | 39.88177 | 34189 ft | 486 kts | 78° |
| 2026-05-08 01:45 | 41.72095 | 39.97120 | 34198 ft | 487 kts | 79° |
| 2026-05-08 01:46 | 41.73143 | 40.06082 | 34197 ft | 488 kts | 79° |
| 2026-05-08 01:46 | 41.74178 | 40.14994 | 34195 ft | 488 kts | 79° |
| 2026-05-08 01:47 | 41.75213 | 40.23966 | 34195 ft | 488 kts | 79° |
| 2026-05-08 01:47 | 41.76241 | 40.32946 | 34195 ft | 488 kts | 79° |
| 2026-05-08 01:48 | 41.77770 | 40.46415 | 34197 ft | 487 kts | 79° |
| 2026-05-08 01:48 | 41.78772 | 40.55320 | 34198 ft | 487 kts | 79° |
| 2026-05-08 01:49 | 41.79682 | 40.64313 | 34194 ft | 488 kts | 84° |
| 2026-05-08 01:49 | 41.79573 | 40.73428 | 34195 ft | 490 kts | 91° |
| 2026-05-08 01:50 | 41.79149 | 40.82552 | 34199 ft | 490 kts | 92° |
| 2026-05-08 01:50 | 41.78670 | 40.91581 | 34196 ft | 488 kts | 92° |
| 2026-05-08 01:51 | 41.78193 | 41.00667 | 34190 ft | 491 kts | 92° |
| 2026-05-08 01:51 | 41.77721 | 41.09801 | 34188 ft | 492 kts | 92° |
| 2026-05-08 01:52 | 41.77245 | 41.18941 | 34184 ft | 492 kts | 92° |
| 2026-05-08 01:52 | 41.76762 | 41.28080 | 34180 ft | 492 kts | 92° |
| 2026-05-08 01:53 | 41.76275 | 41.37151 | 34186 ft | 492 kts | 92° |
| 2026-05-08 01:53 | 41.75777 | 41.46313 | 34185 ft | 494 kts | 92° |
| 2026-05-08 01:54 | 41.75269 | 41.55478 | 34187 ft | 494 kts | 92° |
| 2026-05-08 01:54 | 41.74755 | 41.64642 | 34174 ft | 494 kts | 93° |
| 2026-05-08 01:55 | 41.74233 | 41.73810 | 34188 ft | 494 kts | 93° |
| 2026-05-08 01:55 | 41.73708 | 41.82924 | 34179 ft | 495 kts | 93° |
| 2026-05-08 01:56 | 41.73170 | 41.92125 | 34186 ft | 496 kts | 93° |
| 2026-05-08 01:56 | 41.72624 | 42.01335 | 34190 ft | 496 kts | 93° |
| 2026-05-08 01:57 | 41.72070 | 42.10545 | 34204 ft | 496 kts | 93° |
| 2026-05-08 01:57 | 41.71513 | 42.19684 | 34201 ft | 496 kts | 94° |
| 2026-05-08 01:58 | 41.70944 | 42.28896 | 34213 ft | 497 kts | 94° |
| 2026-05-08 01:58 | 41.70366 | 42.38116 | 34205 ft | 497 kts | 94° |
| 2026-05-08 01:59 | 41.69782 | 42.47341 | 34213 ft | 497 kts | 94° |
| 2026-05-08 01:59 | 41.69190 | 42.56564 | 34213 ft | 497 kts | 94° |
| 2026-05-08 02:00 | 41.68596 | 42.65718 | 34212 ft | 498 kts | 94° |
| 2026-05-08 02:00 | 41.67988 | 42.74965 | 34216 ft | 499 kts | 94° |
| 2026-05-08 02:01 | 41.67371 | 42.84221 | 34212 ft | 499 kts | 95° |
| 2026-05-08 02:01 | 41.66425 | 42.93415 | 34219 ft | 500 kts | 99° |
| 2026-05-08 02:02 | 41.65169 | 43.02490 | 34217 ft | 500 kts | 101° |
| 2026-05-08 02:02 | 41.63883 | 43.11646 | 34226 ft | 501 kts | 100° |
| 2026-05-08 02:03 | 41.62632 | 43.20817 | 34224 ft | 502 kts | 100° |
| 2026-05-08 02:03 | 41.61396 | 43.29993 | 34222 ft | 501 kts | 100° |
| 2026-05-08 02:04 | 41.60167 | 43.39098 | 34223 ft | 502 kts | 100° |
| 2026-05-08 02:04 | 41.58919 | 43.48283 | 34222 ft | 503 kts | 101° |
| 2026-05-08 02:05 | 41.57658 | 43.57484 | 34223 ft | 503 kts | 101° |
| 2026-05-08 02:05 | 41.56390 | 43.66673 | 34217 ft | 503 kts | 101° |
| 2026-05-08 02:06 | 41.55124 | 43.75803 | 34211 ft | 504 kts | 101° |
| 2026-05-08 02:06 | 41.53838 | 43.85014 | 34209 ft | 506 kts | 101° |
| 2026-05-08 02:07 | 41.52542 | 43.94244 | 34205 ft | 506 kts | 102° |
| 2026-05-08 02:07 | 41.51238 | 44.03473 | 34215 ft | 506 kts | 102° |
| 2026-05-08 02:08 | 41.49927 | 44.12695 | 34211 ft | 506 kts | 102° |
| 2026-05-08 02:08 | 41.48615 | 44.21870 | 34212 ft | 508 kts | 102° |
| 2026-05-08 02:09 | 41.47282 | 44.31130 | 34209 ft | 508 kts | 102° |
| 2026-05-08 02:09 | 41.45942 | 44.40382 | 34209 ft | 508 kts | 102° |
| 2026-05-08 02:10 | 41.44596 | 44.49631 | 34209 ft | 508 kts | 102° |
| 2026-05-08 02:10 | 41.43251 | 44.58811 | 34198 ft | 508 kts | 102° |
| 2026-05-08 02:11 | 41.41889 | 44.68056 | 34194 ft | 508 kts | 102° |
| 2026-05-08 02:11 | 41.40521 | 44.77292 | 34190 ft | 508 kts | 103° |
| 2026-05-08 02:12 | 41.39147 | 44.86521 | 34186 ft | 509 kts | 103° |
| 2026-05-08 02:12 | 41.37768 | 44.95720 | 34177 ft | 511 kts | 103° |
| 2026-05-08 02:13 | 41.36368 | 45.04991 | 34176 ft | 511 kts | 104° |
| 2026-05-08 02:13 | 41.34405 | 45.14044 | 34176 ft | 509 kts | 110° |
| 2026-05-08 02:14 | 41.32155 | 45.22965 | 34180 ft | 509 kts | 112° |
| 2026-05-08 02:14 | 41.29861 | 45.31808 | 34179 ft | 509 kts | 112° |
| 2026-05-08 02:15 | 41.27548 | 45.40709 | 34171 ft | 510 kts | 112° |
| 2026-05-08 02:15 | 41.25237 | 45.49615 | 34172 ft | 510 kts | 112° |
| 2026-05-08 02:16 | 41.22920 | 45.58530 | 34170 ft | 511 kts | 112° |
| 2026-05-08 02:16 | 41.20591 | 45.67449 | 34170 ft | 511 kts | 113° |
| 2026-05-08 02:17 | 41.18265 | 45.76298 | 34167 ft | 511 kts | 113° |
| 2026-05-08 02:17 | 41.15913 | 45.85208 | 34164 ft | 512 kts | 114° |
| 2026-05-08 02:18 | 41.13546 | 45.94137 | 34167 ft | 513 kts | 114° |
| 2026-05-08 02:18 | 41.11169 | 46.03076 | 34167 ft | 514 kts | 114° |
| 2026-05-08 02:19 | 41.08804 | 46.11941 | 34167 ft | 514 kts | 114° |
| 2026-05-08 02:19 | 41.06412 | 46.20874 | 34173 ft | 515 kts | 115° |
| 2026-05-08 02:20 | 41.04008 | 46.29824 | 34173 ft | 515 kts | 115° |
| 2026-05-08 02:20 | 41.01616 | 46.38773 | 34172 ft | 516 kts | 115° |
| 2026-05-08 02:21 | 40.99241 | 46.47665 | 34171 ft | 516 kts | 115° |
| 2026-05-08 02:21 | 40.96839 | 46.56612 | 34176 ft | 516 kts | 115° |
| 2026-05-08 02:22 | 40.94427 | 46.65560 | 34171 ft | 516 kts | 116° |
| 2026-05-08 02:22 | 40.92032 | 46.74513 | 34142 ft | 518 kts | 114° |
| 2026-05-08 02:23 | 40.90879 | 46.83983 | 34169 ft | 536 kts | 95° |
| 2026-05-08 02:23 | 40.91221 | 46.88916 | 34177 ft | 544 kts | 84° |
| 2026-05-08 02:23 | 40.91963 | 46.93829 | 34154 ft | 546 kts | 81° |
| 2026-05-08 02:24 | 40.93771 | 47.03601 | 34171 ft | 549 kts | 79° |
| 2026-05-08 02:24 | 40.95668 | 47.13413 | 34171 ft | 551 kts | 79° |
| 2026-05-08 02:25 | 40.97515 | 47.23244 | 34176 ft | 551 kts | 80° |
| 2026-05-08 02:25 | 40.99309 | 47.33031 | 34167 ft | 551 kts | 80° |
| 2026-05-08 02:26 | 41.01097 | 47.42900 | 34160 ft | 552 kts | 81° |
| 2026-05-08 02:26 | 41.02886 | 47.52829 | 34171 ft | 555 kts | 81° |
| 2026-05-08 02:27 | 41.04672 | 47.62777 | 34165 ft | 555 kts | 81° |
| 2026-05-08 02:27 | 41.06450 | 47.72734 | 34166 ft | 555 kts | 81° |
| 2026-05-08 02:28 | 41.08207 | 47.82621 | 34176 ft | 554 kts | 81° |
| 2026-05-08 02:28 | 41.09992 | 47.92557 | 34157 ft | 555 kts | 78° |
| 2026-05-08 02:29 | 41.13194 | 48.01930 | 34168 ft | 563 kts | 59° |
| 2026-05-08 02:29 | 41.17658 | 48.10487 | 34178 ft | 565 kts | 54° |
| 2026-05-08 02:30 | 41.22313 | 48.18822 | 34171 ft | 565 kts | 54° |
| 2026-05-08 02:30 | 41.26988 | 48.27210 | 34173 ft | 565 kts | 54° |
| 2026-05-08 02:31 | 41.31633 | 48.35650 | 34166 ft | 566 kts | 55° |
| 2026-05-08 02:31 | 41.36258 | 48.44125 | 34158 ft | 566 kts | 55° |
| 2026-05-08 02:32 | 41.40843 | 48.52558 | 34153 ft | 566 kts | 55° |
| 2026-05-08 02:32 | 41.45498 | 48.61028 | 34143 ft | 566 kts | 54° |
| 2026-05-08 02:33 | 41.50211 | 48.69448 | 34132 ft | 567 kts | 54° |
| 2026-05-08 02:33 | 41.54855 | 48.77948 | 34131 ft | 567 kts | 56° |
| 2026-05-08 02:34 | 41.59264 | 48.86684 | 34128 ft | 567 kts | 58° |
| 2026-05-08 02:34 | 41.63583 | 48.95405 | 34127 ft | 567 kts | 58° |
| 2026-05-08 02:35 | 41.67951 | 49.04183 | 34124 ft | 567 kts | 57° |
| 2026-05-08 02:35 | 41.72331 | 49.12952 | 34125 ft | 567 kts | 57° |
| 2026-05-08 02:36 | 41.76711 | 49.21735 | 34126 ft | 567 kts | 57° |
| 2026-05-08 02:36 | 41.81053 | 49.30454 | 34125 ft | 566 kts | 57° |
| 2026-05-08 02:37 | 41.85628 | 49.39064 | 34110 ft | 567 kts | 54° |
| 2026-05-08 02:37 | 41.90325 | 49.47561 | 34127 ft | 567 kts | 54° |
| 2026-05-08 02:38 | 41.95013 | 49.56083 | 34124 ft | 567 kts | 54° |
| 2026-05-08 02:38 | 41.99640 | 49.64585 | 34124 ft | 567 kts | 54° |
| 2026-05-08 02:39 | 42.04274 | 49.73156 | 34125 ft | 566 kts | 54° |
| 2026-05-08 02:39 | 42.08899 | 49.81737 | 34126 ft | 566 kts | 54° |
| 2026-05-08 02:40 | 42.13517 | 49.90327 | 34120 ft | 566 kts | 54° |
| 2026-05-08 02:40 | 42.18102 | 49.98876 | 34122 ft | 566 kts | 54° |
| 2026-05-08 02:41 | 42.22709 | 50.07491 | 34122 ft | 566 kts | 54° |
| 2026-05-08 02:41 | 42.27310 | 50.16121 | 34119 ft | 566 kts | 54° |
| 2026-05-08 02:42 | 42.31900 | 50.24753 | 34116 ft | 566 kts | 54° |
| 2026-05-08 02:42 | 42.36486 | 50.33403 | 34105 ft | 566 kts | 54° |
| 2026-05-08 02:43 | 42.41028 | 50.41994 | 34113 ft | 565 kts | 54° |
| 2026-05-08 02:43 | 42.45651 | 50.50609 | 34111 ft | 565 kts | 52° |
| 2026-05-08 02:44 | 42.50466 | 50.59028 | 34100 ft | 565 kts | 51° |
| 2026-05-08 02:44 | 42.55312 | 50.67409 | 34102 ft | 565 kts | 51° |
| 2026-05-08 02:45 | 42.60103 | 50.75771 | 34102 ft | 565 kts | 52° |
| 2026-05-08 02:45 | 42.64903 | 50.84220 | 34101 ft | 565 kts | 52° |
| 2026-05-08 02:46 | 42.69686 | 50.92676 | 34099 ft | 564 kts | 52° |
| 2026-05-08 02:46 | 42.74460 | 51.01138 | 34101 ft | 564 kts | 52° |
| 2026-05-08 02:47 | 42.79201 | 51.09563 | 34087 ft | 564 kts | 52° |
| 2026-05-08 02:47 | 42.83966 | 51.18053 | 34084 ft | 564 kts | 52° |
| 2026-05-08 02:48 | 42.88724 | 51.26555 | 34087 ft | 564 kts | 52° |
| 2026-05-08 02:48 | 42.93475 | 51.35071 | 34074 ft | 564 kts | 52° |
| 2026-05-08 02:49 | 42.98220 | 51.43599 | 34075 ft | 564 kts | 52° |
| 2026-05-08 02:49 | 43.02929 | 51.52087 | 34058 ft | 564 kts | 52° |
| 2026-05-08 02:50 | 43.07662 | 51.60643 | 34068 ft | 564 kts | 52° |
| 2026-05-08 02:50 | 43.12386 | 51.69207 | 34067 ft | 564 kts | 52° |
| 2026-05-08 02:51 | 43.17101 | 51.77782 | 34062 ft | 564 kts | 52° |
| 2026-05-08 02:51 | 43.21782 | 51.86317 | 34058 ft | 564 kts | 52° |
| 2026-05-08 02:52 | 43.26488 | 51.94923 | 34058 ft | 564 kts | 52° |
| 2026-05-08 02:52 | 43.30396 | 52.02088 | 34056 ft | 564 kts | 52° |
| 2026-05-08 02:53 | 43.35094 | 52.10727 | 34059 ft | 565 kts | 52° |
| 2026-05-08 02:53 | 43.40549 | 52.20788 | 34055 ft | 565 kts | 52° |
| 2026-05-08 02:54 | 43.45235 | 52.29458 | 34053 ft | 564 kts | 52° |
| 2026-05-08 02:54 | 43.49118 | 52.36663 | 34055 ft | 563 kts | 52° |
| 2026-05-08 02:55 | 43.56111 | 52.49682 | 34056 ft | 563 kts | 53° |
| 2026-05-08 02:56 | 43.61514 | 52.59781 | 34047 ft | 563 kts | 52° |
| 2026-05-08 02:56 | 43.65406 | 52.67076 | 34047 ft | 563 kts | 53° |
| 2026-05-08 02:57 | 43.70003 | 52.75737 | 34043 ft | 562 kts | 53° |
| 2026-05-08 02:57 | 43.74611 | 52.84463 | 34042 ft | 562 kts | 53° |
| 2026-05-08 02:58 | 43.79214 | 52.93203 | 34038 ft | 562 kts | 53° |
| 2026-05-08 02:58 | 43.83811 | 53.01957 | 34019 ft | 562 kts | 53° |
| 2026-05-08 02:59 | 43.88390 | 53.10702 | 34032 ft | 560 kts | 53° |
| 2026-05-08 02:59 | 43.92921 | 53.19383 | 34030 ft | 560 kts | 53° |
| 2026-05-08 03:00 | 43.97479 | 53.28144 | 34024 ft | 559 kts | 53° |
| 2026-05-08 03:00 | 44.02024 | 53.36906 | 34027 ft | 559 kts | 53° |
| 2026-05-08 03:01 | 44.06561 | 53.45678 | 34032 ft | 559 kts | 53° |
| 2026-05-08 03:01 | 44.11063 | 53.54411 | 34036 ft | 559 kts | 53° |
| 2026-05-08 03:02 | 44.15592 | 53.63222 | 34027 ft | 560 kts | 53° |
| 2026-05-08 03:02 | 44.20120 | 53.72056 | 34019 ft | 560 kts | 53° |
| 2026-05-08 03:03 | 44.24642 | 53.80907 | 34017 ft | 560 kts | 53° |
| 2026-05-08 03:03 | 44.29123 | 53.89704 | 34019 ft | 560 kts | 53° |
| 2026-05-08 03:04 | 44.33631 | 53.98582 | 34020 ft | 560 kts | 53° |
| 2026-05-08 03:04 | 44.38131 | 54.07468 | 34022 ft | 560 kts | 53° |
| 2026-05-08 03:05 | 44.42632 | 54.16386 | 34020 ft | 562 kts | 54° |
| 2026-05-08 03:05 | 44.47133 | 54.25331 | 34022 ft | 562 kts | 54° |
| 2026-05-08 03:06 | 44.51593 | 54.34221 | 34012 ft | 560 kts | 54° |
| 2026-05-08 03:06 | 44.56060 | 54.43156 | 34005 ft | 560 kts | 54° |
| 2026-05-08 03:07 | 44.60522 | 54.52106 | 33998 ft | 560 kts | 54° |
| 2026-05-08 03:07 | 44.65006 | 54.61039 | 34001 ft | 559 kts | 51° |
| 2026-05-08 03:08 | 44.70365 | 54.68901 | 33999 ft | 557 kts | 41° |
| 2026-05-08 03:08 | 44.76023 | 54.76244 | 33990 ft | 557 kts | 39° |
| 2026-05-08 03:09 | 44.81772 | 54.83555 | 33978 ft | 557 kts | 39° |
| 2026-05-08 03:09 | 44.87513 | 54.90895 | 33988 ft | 557 kts | 40° |
| 2026-05-08 03:10 | 44.93241 | 54.98276 | 33982 ft | 558 kts | 40° |
| 2026-05-08 03:10 | 44.98920 | 55.05627 | 33984 ft | 557 kts | 40° |
| 2026-05-08 03:11 | 45.04606 | 55.13031 | 33976 ft | 555 kts | 42° |
| 2026-05-08 03:11 | 45.09282 | 55.21685 | 33974 ft | 556 kts | 63° |
| 2026-05-08 03:12 | 45.12378 | 55.31615 | 33976 ft | 556 kts | 69° |
| 2026-05-08 03:12 | 45.15160 | 55.41831 | 33977 ft | 556 kts | 70° |
| 2026-05-08 03:13 | 45.17893 | 55.52072 | 33979 ft | 556 kts | 70° |
| 2026-05-08 03:13 | 45.20651 | 55.62307 | 33979 ft | 556 kts | 70° |
| 2026-05-08 03:14 | 45.23405 | 55.72476 | 33976 ft | 556 kts | 70° |
| 2026-05-08 03:14 | 45.26173 | 55.82717 | 33977 ft | 556 kts | 70° |
| 2026-05-08 03:15 | 45.28928 | 55.92956 | 33952 ft | 556 kts | 70° |
| 2026-05-08 03:15 | 45.31686 | 56.03257 | 33977 ft | 559 kts | 70° |
| 2026-05-08 03:16 | 45.34421 | 56.13518 | 33979 ft | 559 kts | 70° |
| 2026-05-08 03:16 | 45.37166 | 56.23864 | 33976 ft | 559 kts | 71° |
| 2026-05-08 03:17 | 45.39901 | 56.34214 | 33976 ft | 559 kts | 71° |
| 2026-05-08 03:17 | 45.42627 | 56.44575 | 33972 ft | 559 kts | 71° |
| 2026-05-08 03:18 | 45.45345 | 56.54955 | 33976 ft | 559 kts | 71° |
| 2026-05-08 03:18 | 45.48037 | 56.65280 | 33983 ft | 559 kts | 71° |
| 2026-05-08 03:19 | 45.50737 | 56.75679 | 33979 ft | 559 kts | 71° |
| 2026-05-08 03:19 | 45.53427 | 56.86089 | 33982 ft | 559 kts | 71° |
| 2026-05-08 03:20 | 45.56088 | 56.96432 | 33981 ft | 559 kts | 71° |
| 2026-05-08 03:20 | 45.58760 | 57.06862 | 33975 ft | 560 kts | 71° |
| 2026-05-08 03:21 | 45.61425 | 57.17314 | 33980 ft | 561 kts | 71° |
| 2026-05-08 03:21 | 45.64083 | 57.27785 | 33979 ft | 561 kts | 71° |
| 2026-05-08 03:22 | 45.66715 | 57.38201 | 33976 ft | 561 kts | 71° |
| 2026-05-08 03:22 | 45.69351 | 57.48681 | 33981 ft | 560 kts | 72° |
| 2026-05-08 03:23 | 45.71979 | 57.59176 | 33978 ft | 560 kts | 72° |
| 2026-05-08 03:23 | 45.74595 | 57.69672 | 33980 ft | 560 kts | 72° |
| 2026-05-08 03:24 | 45.77186 | 57.80121 | 33978 ft | 560 kts | 72° |
| 2026-05-08 03:24 | 45.79786 | 57.90651 | 33981 ft | 561 kts | 72° |
| 2026-05-08 03:25 | 45.82377 | 58.01193 | 33987 ft | 561 kts | 72° |
| 2026-05-08 03:25 | 45.84956 | 58.11739 | 33992 ft | 561 kts | 72° |
| 2026-05-08 03:26 | 45.87530 | 58.22311 | 33989 ft | 561 kts | 72° |
| 2026-05-08 03:26 | 45.90075 | 58.32814 | 33987 ft | 561 kts | 72° |
| 2026-05-08 03:27 | 45.92627 | 58.43392 | 33987 ft | 561 kts | 72° |
| 2026-05-08 03:27 | 45.95168 | 58.53980 | 33982 ft | 562 kts | 72° |
| 2026-05-08 03:28 | 45.97689 | 58.64533 | 33985 ft | 562 kts | 72° |
| 2026-05-08 03:28 | 46.00214 | 58.75156 | 33986 ft | 562 kts | 72° |
| 2026-05-08 03:29 | 46.02733 | 58.85801 | 33994 ft | 561 kts | 73° |
| 2026-05-08 03:29 | 46.05231 | 58.96410 | 33995 ft | 560 kts | 73° |
| 2026-05-08 03:30 | 46.08943 | 59.12271 | 33978 ft | 560 kts | 73° |
| 2026-05-08 03:31 | 46.13882 | 59.33555 | 33985 ft | 560 kts | 73° |
| 2026-05-08 03:32 | 46.17567 | 59.49573 | 33989 ft | 562 kts | 73° |
| 2026-05-08 03:32 | 46.19999 | 59.60208 | 33987 ft | 562 kts | 73° |
| 2026-05-08 03:33 | 46.22443 | 59.70947 | 33988 ft | 562 kts | 73° |
| 2026-05-08 03:33 | 46.24863 | 59.81682 | 33992 ft | 562 kts | 73° |
| 2026-05-08 03:34 | 46.27265 | 59.92424 | 33996 ft | 562 kts | 73° |
| 2026-05-08 03:34 | 46.29660 | 60.03191 | 33993 ft | 562 kts | 73° |
| 2026-05-08 03:35 | 46.32030 | 60.13890 | 33991 ft | 562 kts | 73° |
| 2026-05-08 03:35 | 46.34406 | 60.24670 | 33990 ft | 562 kts | 73° |
| 2026-05-08 03:36 | 46.36770 | 60.35455 | 33990 ft | 562 kts | 73° |
| 2026-05-08 03:36 | 46.39125 | 60.46249 | 33986 ft | 562 kts | 74° |
| 2026-05-08 03:37 | 46.41454 | 60.56980 | 33987 ft | 562 kts | 74° |
| 2026-05-08 03:37 | 46.43789 | 60.67799 | 33986 ft | 562 kts | 74° |
| 2026-05-08 03:38 | 46.46114 | 60.78626 | 33994 ft | 562 kts | 74° |
| 2026-05-08 03:38 | 46.48428 | 60.89456 | 33992 ft | 562 kts | 74° |
| 2026-05-08 03:39 | 46.50717 | 61.00229 | 33976 ft | 562 kts | 74° |
| 2026-05-08 03:39 | 46.53009 | 61.11074 | 33996 ft | 562 kts | 74° |
| 2026-05-08 03:40 | 46.55293 | 61.21934 | 33990 ft | 562 kts | 74° |
| 2026-05-08 03:40 | 46.57563 | 61.32790 | 33997 ft | 562 kts | 75° |
| 2026-05-08 03:41 | 46.59808 | 61.43581 | 33988 ft | 561 kts | 75° |
| 2026-05-08 03:41 | 46.62056 | 61.54445 | 33995 ft | 561 kts | 75° |
| 2026-05-08 03:42 | 46.64293 | 61.65317 | 33994 ft | 561 kts | 75° |
| 2026-05-08 03:42 | 46.66518 | 61.76192 | 33979 ft | 561 kts | 75° |
| 2026-05-08 03:43 | 46.68719 | 61.87003 | 34001 ft | 561 kts | 75° |
| 2026-05-08 03:43 | 46.70927 | 61.97906 | 33987 ft | 561 kts | 75° |
| 2026-05-08 03:44 | 46.73123 | 62.08817 | 34007 ft | 561 kts | 75° |
| 2026-05-08 03:44 | 46.75310 | 62.19735 | 33988 ft | 560 kts | 75° |
| 2026-05-08 03:45 | 46.77466 | 62.30565 | 33993 ft | 560 kts | 75° |
| 2026-05-08 03:45 | 46.79628 | 62.41485 | 34007 ft | 560 kts | 75° |
| 2026-05-08 03:46 | 46.81777 | 62.52397 | 33999 ft | 560 kts | 76° |
| 2026-05-08 03:46 | 46.83919 | 62.63339 | 33998 ft | 560 kts | 76° |
| 2026-05-08 03:47 | 46.86037 | 62.74212 | 33994 ft | 560 kts | 76° |
| 2026-05-08 03:47 | 46.88160 | 62.85171 | 33996 ft | 560 kts | 76° |
| 2026-05-08 03:48 | 46.90272 | 62.96139 | 33989 ft | 561 kts | 76° |
| 2026-05-08 03:48 | 46.92377 | 63.07134 | 33990 ft | 562 kts | 76° |
| 2026-05-08 03:49 | 46.94473 | 63.18146 | 33992 ft | 562 kts | 76° |
| 2026-05-08 03:49 | 46.96547 | 63.29104 | 33980 ft | 562 kts | 76° |
| 2026-05-08 03:50 | 46.98622 | 63.40133 | 33988 ft | 562 kts | 76° |
| 2026-05-08 03:50 | 47.00684 | 63.51158 | 33988 ft | 561 kts | 76° |
| 2026-05-08 03:51 | 47.02737 | 63.62196 | 33993 ft | 561 kts | 76° |
| 2026-05-08 03:51 | 47.04765 | 63.73171 | 33990 ft | 561 kts | 77° |
| 2026-05-08 03:52 | 47.06794 | 63.84209 | 33988 ft | 560 kts | 77° |
| 2026-05-08 03:52 | 47.08810 | 63.95252 | 33988 ft | 560 kts | 77° |
| 2026-05-08 03:53 | 47.10816 | 64.06298 | 33985 ft | 560 kts | 77° |
| 2026-05-08 03:53 | 47.12798 | 64.17285 | 33977 ft | 560 kts | 77° |
| 2026-05-08 03:54 | 47.14783 | 64.28348 | 33977 ft | 560 kts | 77° |
| 2026-05-08 03:54 | 47.16757 | 64.39425 | 33977 ft | 560 kts | 77° |
| 2026-05-08 03:55 | 47.18719 | 64.50500 | 33977 ft | 559 kts | 77° |
| 2026-05-08 03:55 | 47.20657 | 64.61486 | 33974 ft | 558 kts | 77° |
| 2026-05-08 03:56 | 47.22599 | 64.72541 | 33974 ft | 558 kts | 77° |
| 2026-05-08 03:56 | 47.24532 | 64.83608 | 33954 ft | 558 kts | 77° |
| 2026-05-08 03:57 | 47.26450 | 64.94660 | 33968 ft | 557 kts | 77° |
| 2026-05-08 03:57 | 47.28343 | 65.05640 | 33969 ft | 557 kts | 78° |
| 2026-05-08 03:58 | 47.30235 | 65.16691 | 33968 ft | 557 kts | 78° |
| 2026-05-08 03:58 | 47.32117 | 65.27744 | 33963 ft | 556 kts | 78° |
| 2026-05-08 03:59 | 47.33984 | 65.38785 | 33960 ft | 554 kts | 78° |
| 2026-05-08 03:59 | 47.35839 | 65.49822 | 33960 ft | 554 kts | 78° |
| 2026-05-08 04:00 | 47.37670 | 65.60787 | 33961 ft | 554 kts | 78° |
| 2026-05-08 04:00 | 47.39500 | 65.71812 | 33960 ft | 552 kts | 78° |
| 2026-05-08 04:01 | 47.41312 | 65.82806 | 33957 ft | 551 kts | 78° |
| 2026-05-08 04:01 | 47.43161 | 65.93790 | 33958 ft | 551 kts | 78° |
| 2026-05-08 04:02 | 47.45028 | 66.04678 | 33951 ft | 550 kts | 78° |
| 2026-05-08 04:02 | 47.46893 | 66.15624 | 33958 ft | 548 kts | 78° |
| 2026-05-08 04:03 | 47.48737 | 66.26561 | 33958 ft | 548 kts | 78° |
| 2026-05-08 04:03 | 47.51481 | 66.42988 | 33954 ft | 548 kts | 78° |
| 2026-05-08 04:04 | 47.53280 | 66.53846 | 33954 ft | 547 kts | 78° |
| 2026-05-08 04:04 | 47.55083 | 66.64803 | 33955 ft | 547 kts | 78° |
| 2026-05-08 04:05 | 47.56864 | 66.75756 | 33955 ft | 547 kts | 79° |
| 2026-05-08 04:05 | 47.58587 | 66.86734 | 33948 ft | 548 kts | 79° |
| 2026-05-08 04:06 | 47.60289 | 66.97734 | 33949 ft | 548 kts | 79° |
| 2026-05-08 04:06 | 47.61974 | 67.08668 | 33954 ft | 548 kts | 79° |
| 2026-05-08 04:07 | 47.63662 | 67.19673 | 33953 ft | 548 kts | 79° |
| 2026-05-08 04:07 | 47.65341 | 67.30674 | 33947 ft | 546 kts | 80° |
| 2026-05-08 04:08 | 47.67002 | 67.41641 | 33946 ft | 545 kts | 80° |
| 2026-05-08 04:08 | 47.68640 | 67.52541 | 33963 ft | 545 kts | 80° |
| 2026-05-08 04:09 | 47.70280 | 67.63519 | 33959 ft | 545 kts | 81° |
| 2026-05-08 04:09 | 47.71910 | 67.74515 | 33965 ft | 545 kts | 81° |
| 2026-05-08 04:10 | 47.73224 | 67.85581 | 33967 ft | 543 kts | 85° |
| 2026-05-08 04:10 | 47.74238 | 67.96614 | 33963 ft | 543 kts | 86° |
| 2026-05-08 04:11 | 47.75243 | 68.07720 | 33958 ft | 543 kts | 86° |
| 2026-05-08 04:11 | 47.76281 | 68.18832 | 33961 ft | 543 kts | 86° |
| 2026-05-08 04:12 | 47.77330 | 68.29946 | 33956 ft | 543 kts | 86° |
| 2026-05-08 04:12 | 47.78365 | 68.40984 | 33955 ft | 543 kts | 86° |
| 2026-05-08 04:13 | 47.79395 | 68.52099 | 33960 ft | 543 kts | 86° |
| 2026-05-08 04:13 | 47.80412 | 68.63218 | 33958 ft | 542 kts | 86° |
| 2026-05-08 04:14 | 47.81417 | 68.74334 | 33963 ft | 542 kts | 86° |
| 2026-05-08 04:14 | 47.81956 | 68.85376 | 33968 ft | 537 kts | 95° |
| 2026-05-08 04:15 | 47.81855 | 68.96448 | 33968 ft | 533 kts | 97° |
| 2026-05-08 04:15 | 47.81636 | 69.07460 | 33978 ft | 532 kts | 97° |
| 2026-05-08 04:16 | 47.81400 | 69.18461 | 33975 ft | 532 kts | 97° |
| 2026-05-08 04:16 | 47.81170 | 69.29387 | 33977 ft | 532 kts | 97° |
| 2026-05-08 04:17 | 47.80937 | 69.40355 | 33989 ft | 528 kts | 97° |
| 2026-05-08 04:17 | 47.80698 | 69.51247 | 33990 ft | 526 kts | 97° |
| 2026-05-08 04:18 | 47.80446 | 69.62109 | 33986 ft | 525 kts | 97° |
| 2026-05-08 04:18 | 47.80184 | 69.72973 | 33993 ft | 525 kts | 97° |
| 2026-05-08 04:19 | 47.79913 | 69.83760 | 33992 ft | 525 kts | 97° |
| 2026-05-08 04:19 | 47.79631 | 69.94611 | 33997 ft | 525 kts | 97° |
| 2026-05-08 04:20 | 47.79340 | 70.05448 | 33998 ft | 525 kts | 97° |
| 2026-05-08 04:20 | 47.79039 | 70.16294 | 33995 ft | 525 kts | 97° |
| 2026-05-08 04:21 | 47.78727 | 70.27061 | 33998 ft | 526 kts | 96° |
| 2026-05-08 04:21 | 47.78402 | 70.37950 | 34002 ft | 528 kts | 96° |
| 2026-05-08 04:22 | 47.78068 | 70.48860 | 33998 ft | 528 kts | 96° |
| 2026-05-08 04:22 | 47.77724 | 70.59776 | 33999 ft | 528 kts | 96° |
| 2026-05-08 04:23 | 47.77371 | 70.70604 | 33991 ft | 528 kts | 96° |
| 2026-05-08 04:23 | 47.77004 | 70.81531 | 34004 ft | 530 kts | 96° |
| 2026-05-08 04:24 | 47.76626 | 70.92488 | 34004 ft | 531 kts | 96° |
| 2026-05-08 04:24 | 47.76238 | 71.03445 | 34003 ft | 531 kts | 96° |
| 2026-05-08 04:25 | 47.75842 | 71.14328 | 34006 ft | 531 kts | 96° |
| 2026-05-08 04:25 | 47.75432 | 71.25286 | 34010 ft | 532 kts | 96° |
| 2026-05-08 04:26 | 47.75011 | 71.36265 | 34013 ft | 532 kts | 96° |
| 2026-05-08 04:26 | 47.74580 | 71.47245 | 34015 ft | 532 kts | 96° |
| 2026-05-08 04:27 | 47.74139 | 71.58216 | 34018 ft | 532 kts | 96° |
| 2026-05-08 04:27 | 47.73688 | 71.69141 | 34018 ft | 537 kts | 96° |
| 2026-05-08 04:28 | 47.73218 | 71.80272 | 34017 ft | 541 kts | 96° |
| 2026-05-08 04:28 | 47.72661 | 71.91406 | 34017 ft | 541 kts | 97° |
| 2026-05-08 04:29 | 47.72008 | 72.02528 | 34018 ft | 540 kts | 98° |
| 2026-05-08 04:29 | 47.71344 | 72.13567 | 34015 ft | 541 kts | 97° |
| 2026-05-08 04:30 | 47.71011 | 72.19118 | 34162 ft | 540 kts | 97° |
| 2026-05-08 04:30 | 47.70679 | 72.24667 | 34504 ft | 538 kts | 97° |
| 2026-05-08 04:30 | 47.70348 | 72.30172 | 34874 ft | 534 kts | 97° |
| 2026-05-08 04:30 | 47.70017 | 72.35644 | 35278 ft | 531 kts | 97° |
| 2026-05-08 04:31 | 47.69685 | 72.41102 | 35580 ft | 530 kts | 96° |
| 2026-05-08 04:31 | 47.69351 | 72.46542 | 35842 ft | 530 kts | 96° |
| 2026-05-08 04:31 | 47.69014 | 72.51981 | 36107 ft | 529 kts | 96° |
| 2026-05-08 04:31 | 47.68673 | 72.57425 | 36346 ft | 529 kts | 96° |
| 2026-05-08 04:32 | 47.68336 | 72.62781 | 36594 ft | 528 kts | 96° |
| 2026-05-08 04:32 | 47.67992 | 72.68207 | 36844 ft | 528 kts | 96° |
| 2026-05-08 04:32 | 47.67645 | 72.73624 | 37079 ft | 527 kts | 96° |
| 2026-05-08 04:32 | 47.67297 | 72.79038 | 37317 ft | 527 kts | 96° |
| 2026-05-08 04:33 | 47.66946 | 72.84442 | 37551 ft | 526 kts | 96° |
| 2026-05-08 04:33 | 47.66593 | 72.89839 | 37774 ft | 525 kts | 96° |
| 2026-05-08 04:33 | 47.66238 | 72.95229 | 38000 ft | 525 kts | 96° |
| 2026-05-08 04:33 | 47.65882 | 73.00604 | 38276 ft | 522 kts | 97° |
| 2026-05-08 04:34 | 47.65533 | 73.05850 | 38779 ft | 515 kts | 97° |
| 2026-05-08 04:34 | 47.65179 | 73.11115 | 38965 ft | 514 kts | 97° |
| 2026-05-08 04:34 | 47.64459 | 73.21698 | 39005 ft | 517 kts | 97° |
| 2026-05-08 04:35 | 47.63728 | 73.32299 | 38993 ft | 516 kts | 97° |
| 2026-05-08 04:35 | 47.62990 | 73.42867 | 39001 ft | 515 kts | 97° |
| 2026-05-08 04:36 | 47.62248 | 73.53350 | 39004 ft | 515 kts | 97° |
| 2026-05-08 04:36 | 47.61492 | 73.63896 | 39004 ft | 515 kts | 97° |
| 2026-05-08 04:37 | 47.60726 | 73.74438 | 39003 ft | 514 kts | 97° |
| 2026-05-08 04:37 | 47.59952 | 73.84968 | 39004 ft | 514 kts | 97° |
| 2026-05-08 04:38 | 47.59172 | 73.95429 | 39004 ft | 514 kts | 97° |
| 2026-05-08 04:38 | 47.58378 | 74.05954 | 39004 ft | 514 kts | 97° |
| 2026-05-08 04:39 | 47.57576 | 74.16464 | 39004 ft | 514 kts | 97° |
| 2026-05-08 04:39 | 47.56764 | 74.26967 | 39007 ft | 514 kts | 97° |
| 2026-05-08 04:40 | 47.55942 | 74.37461 | 39009 ft | 512 kts | 98° |
| 2026-05-08 04:40 | 47.55119 | 74.47860 | 39007 ft | 512 kts | 98° |
| 2026-05-08 04:41 | 47.54282 | 74.58315 | 39007 ft | 512 kts | 98° |
| 2026-05-08 04:41 | 47.53434 | 74.68771 | 39009 ft | 512 kts | 98° |
| 2026-05-08 04:42 | 47.52577 | 74.79226 | 39010 ft | 512 kts | 98° |
| 2026-05-08 04:42 | 47.51717 | 74.89594 | 39009 ft | 510 kts | 98° |
| 2026-05-08 04:43 | 47.50845 | 75.00004 | 39007 ft | 510 kts | 98° |
| 2026-05-08 04:43 | 47.49963 | 75.10409 | 39010 ft | 510 kts | 98° |
| 2026-05-08 04:44 | 47.49071 | 75.20804 | 39007 ft | 510 kts | 98° |
| 2026-05-08 04:44 | 47.48177 | 75.31126 | 39003 ft | 509 kts | 98° |
| 2026-05-08 04:45 | 47.47269 | 75.41499 | 39006 ft | 509 kts | 98° |
| 2026-05-08 04:45 | 47.46351 | 75.51862 | 39007 ft | 508 kts | 98° |
| 2026-05-08 04:46 | 47.45425 | 75.62222 | 39004 ft | 508 kts | 98° |
| 2026-05-08 04:46 | 47.44489 | 75.72574 | 39003 ft | 509 kts | 98° |
| 2026-05-08 04:47 | 47.43548 | 75.82877 | 39001 ft | 510 kts | 99° |
| 2026-05-08 04:47 | 47.42590 | 75.93273 | 38994 ft | 511 kts | 99° |
| 2026-05-08 04:48 | 47.41622 | 76.03659 | 38993 ft | 511 kts | 99° |
| 2026-05-08 04:48 | 47.40645 | 76.14046 | 38992 ft | 511 kts | 99° |
| 2026-05-08 04:49 | 47.39663 | 76.24372 | 38991 ft | 513 kts | 99° |
| 2026-05-08 04:49 | 47.38661 | 76.34807 | 38992 ft | 514 kts | 99° |
| 2026-05-08 04:50 | 47.37649 | 76.45260 | 38982 ft | 514 kts | 99° |
| 2026-05-08 04:50 | 47.36627 | 76.55698 | 38982 ft | 514 kts | 99° |
| 2026-05-08 04:51 | 47.35601 | 76.66077 | 38981 ft | 515 kts | 99° |
| 2026-05-08 04:51 | 47.34557 | 76.76543 | 38980 ft | 516 kts | 99° |
| 2026-05-08 04:52 | 47.33502 | 76.87019 | 38979 ft | 516 kts | 99° |
| 2026-05-08 04:52 | 47.32438 | 76.97487 | 38979 ft | 516 kts | 99° |
| 2026-05-08 04:53 | 47.31414 | 77.07960 | 38985 ft | 516 kts | 97° |
| 2026-05-08 04:53 | 47.30803 | 77.18429 | 38991 ft | 517 kts | 94° |
| 2026-05-08 04:54 | 47.30322 | 77.28995 | 38982 ft | 517 kts | 94° |
| 2026-05-08 04:54 | 47.29804 | 77.39545 | 38990 ft | 517 kts | 95° |
| 2026-05-08 04:55 | 47.29238 | 77.50097 | 38990 ft | 517 kts | 95° |
| 2026-05-08 04:55 | 47.28653 | 77.60590 | 38991 ft | 518 kts | 95° |
| 2026-05-08 04:56 | 47.28053 | 77.71165 | 38988 ft | 518 kts | 95° |
| 2026-05-08 04:56 | 47.27445 | 77.81738 | 38987 ft | 518 kts | 95° |
| 2026-05-08 04:57 | 47.26827 | 77.92310 | 38994 ft | 518 kts | 95° |
| 2026-05-08 04:57 | 47.26204 | 78.02813 | 38988 ft | 519 kts | 95° |
| 2026-05-08 04:58 | 47.25566 | 78.13410 | 38990 ft | 520 kts | 95° |
| 2026-05-08 04:58 | 47.24919 | 78.23999 | 38988 ft | 520 kts | 95° |
| 2026-05-08 04:59 | 47.24261 | 78.34588 | 38987 ft | 520 kts | 95° |
| 2026-05-08 04:59 | 47.23592 | 78.45178 | 38985 ft | 520 kts | 95° |
| 2026-05-08 05:00 | 47.22920 | 78.55693 | 38975 ft | 520 kts | 95° |
| 2026-05-08 05:00 | 47.22233 | 78.66274 | 38990 ft | 520 kts | 95° |
| 2026-05-08 05:01 | 47.21536 | 78.76855 | 38988 ft | 520 kts | 95° |
| 2026-05-08 05:01 | 47.20830 | 78.87424 | 38988 ft | 519 kts | 95° |
| 2026-05-08 05:02 | 47.20120 | 78.97904 | 38988 ft | 518 kts | 95° |
| 2026-05-08 05:02 | 47.19397 | 79.08447 | 38985 ft | 518 kts | 95° |
| 2026-05-08 05:03 | 47.18659 | 79.18990 | 38985 ft | 518 kts | 95° |
| 2026-05-08 05:03 | 47.17894 | 79.29524 | 38985 ft | 518 kts | 95° |
| 2026-05-08 05:04 | 47.17116 | 79.40054 | 38982 ft | 518 kts | 95° |
| 2026-05-08 05:04 | 47.16336 | 79.50500 | 38982 ft | 518 kts | 95° |
| 2026-05-08 05:05 | 47.15542 | 79.61018 | 38979 ft | 518 kts | 95° |
| 2026-05-08 05:05 | 47.14739 | 79.71529 | 38980 ft | 518 kts | 95° |
| 2026-05-08 05:06 | 47.13927 | 79.82036 | 38974 ft | 518 kts | 95° |
| 2026-05-08 05:06 | 47.13120 | 79.92459 | 38980 ft | 517 kts | 95° |
| 2026-05-08 05:07 | 47.12316 | 80.02950 | 38979 ft | 517 kts | 95° |
| 2026-05-08 05:07 | 47.11504 | 80.13445 | 38981 ft | 517 kts | 95° |
| 2026-05-08 05:08 | 47.10681 | 80.23928 | 38980 ft | 517 kts | 95° |
| 2026-05-08 05:08 | 47.09853 | 80.34342 | 38980 ft | 517 kts | 95° |
| 2026-05-08 05:09 | 47.09009 | 80.44818 | 38980 ft | 517 kts | 95° |
| 2026-05-08 05:09 | 47.08155 | 80.55301 | 38981 ft | 517 kts | 95° |
| 2026-05-08 05:10 | 47.06856 | 80.71024 | 38979 ft | 518 kts | 95° |
| 2026-05-08 05:11 | 47.05984 | 80.81437 | 38987 ft | 518 kts | 95° |
| 2026-05-08 05:11 | 47.05096 | 80.91919 | 38985 ft | 518 kts | 95° |
| 2026-05-08 05:12 | 47.04197 | 81.02403 | 38988 ft | 518 kts | 95° |
| 2026-05-08 05:12 | 47.03290 | 81.12883 | 38984 ft | 518 kts | 95° |
| 2026-05-08 05:13 | 47.02379 | 81.23287 | 38985 ft | 518 kts | 95° |
| 2026-05-08 05:13 | 47.01454 | 81.33753 | 38988 ft | 518 kts | 96° |
| 2026-05-08 05:14 | 47.00520 | 81.44207 | 38988 ft | 518 kts | 96° |
| 2026-05-08 05:14 | 46.99575 | 81.54665 | 38990 ft | 518 kts | 96° |
| 2026-05-08 05:15 | 46.98627 | 81.65049 | 38980 ft | 518 kts | 96° |
| 2026-05-08 05:15 | 46.97664 | 81.75497 | 38982 ft | 518 kts | 96° |
| 2026-05-08 05:16 | 46.96691 | 81.85942 | 38985 ft | 517 kts | 96° |
| 2026-05-08 05:16 | 46.95709 | 81.96374 | 38993 ft | 517 kts | 96° |
| 2026-05-08 05:17 | 46.94710 | 82.06795 | 38994 ft | 517 kts | 96° |
| 2026-05-08 05:17 | 46.93709 | 82.17136 | 38993 ft | 517 kts | 96° |
| 2026-05-08 05:18 | 46.92691 | 82.27542 | 38999 ft | 516 kts | 96° |
| 2026-05-08 05:18 | 46.91666 | 82.37937 | 39001 ft | 516 kts | 96° |
| 2026-05-08 05:19 | 46.90632 | 82.48319 | 39007 ft | 516 kts | 97° |
| 2026-05-08 05:19 | 46.89596 | 82.58628 | 38998 ft | 516 kts | 97° |
| 2026-05-08 05:20 | 46.88545 | 82.68993 | 39000 ft | 515 kts | 97° |
| 2026-05-08 05:20 | 46.87485 | 82.79345 | 38998 ft | 515 kts | 97° |
| 2026-05-08 05:21 | 46.85764 | 82.89496 | 38998 ft | 517 kts | 112° |
| 2026-05-08 05:21 | 46.82395 | 82.98684 | 39002 ft | 517 kts | 121° |
| 2026-05-08 05:22 | 46.78577 | 83.07589 | 39007 ft | 518 kts | 123° |
| 2026-05-08 05:22 | 46.74704 | 83.16418 | 38992 ft | 516 kts | 123° |
| 2026-05-08 05:23 | 46.70859 | 83.25239 | 38997 ft | 515 kts | 122° |
| 2026-05-08 05:23 | 46.67061 | 83.33993 | 38987 ft | 515 kts | 122° |
| 2026-05-08 05:24 | 46.63066 | 83.42649 | 38992 ft | 515 kts | 126° |
| 2026-05-08 05:24 | 46.58822 | 83.51032 | 38986 ft | 515 kts | 127° |
| 2026-05-08 05:25 | 46.54553 | 83.59372 | 38982 ft | 514 kts | 127° |
| 2026-05-08 05:25 | 46.50313 | 83.67719 | 38979 ft | 513 kts | 127° |
| 2026-05-08 05:26 | 46.46113 | 83.76014 | 38985 ft | 513 kts | 127° |
| 2026-05-08 05:26 | 46.41883 | 83.84358 | 38987 ft | 513 kts | 127° |
| 2026-05-08 05:27 | 46.37650 | 83.92680 | 38996 ft | 513 kts | 127° |
| 2026-05-08 05:27 | 46.33411 | 84.00985 | 39002 ft | 513 kts | 127° |
| 2026-05-08 05:28 | 46.29174 | 84.09262 | 39008 ft | 512 kts | 127° |
| 2026-05-08 05:28 | 46.24960 | 84.17460 | 39005 ft | 511 kts | 127° |
| 2026-05-08 05:29 | 46.20697 | 84.25688 | 38990 ft | 511 kts | 127° |
| 2026-05-08 05:29 | 46.16427 | 84.33898 | 38994 ft | 511 kts | 127° |
| 2026-05-08 05:30 | 46.12154 | 84.42092 | 38993 ft | 511 kts | 127° |
| 2026-05-08 05:30 | 46.07903 | 84.50224 | 38969 ft | 512 kts | 127° |
| 2026-05-08 05:31 | 46.03615 | 84.58403 | 38954 ft | 512 kts | 127° |
| 2026-05-08 05:31 | 45.99318 | 84.66577 | 38955 ft | 512 kts | 127° |
| 2026-05-08 05:32 | 45.95018 | 84.74732 | 38956 ft | 512 kts | 127° |
| 2026-05-08 05:32 | 45.90737 | 84.82827 | 38950 ft | 512 kts | 128° |
| 2026-05-08 05:33 | 45.86426 | 84.90957 | 38952 ft | 512 kts | 128° |
| 2026-05-08 05:33 | 45.82106 | 84.99079 | 38946 ft | 512 kts | 128° |
| 2026-05-08 05:34 | 45.77784 | 85.07181 | 38950 ft | 512 kts | 128° |
| 2026-05-08 05:34 | 45.73451 | 85.15281 | 38941 ft | 512 kts | 128° |
| 2026-05-08 05:35 | 45.69142 | 85.23318 | 38941 ft | 512 kts | 128° |
| 2026-05-08 05:35 | 45.64817 | 85.31414 | 38951 ft | 512 kts | 127° |
| 2026-05-08 05:36 | 45.60494 | 85.39505 | 38941 ft | 512 kts | 127° |
| 2026-05-08 05:36 | 45.56893 | 85.46224 | 38941 ft | 513 kts | 128° |
| 2026-05-08 05:37 | 45.51851 | 85.55598 | 38947 ft | 513 kts | 128° |
| 2026-05-08 05:37 | 45.47507 | 85.63648 | 38945 ft | 512 kts | 128° |
| 2026-05-08 05:38 | 45.43890 | 85.70334 | 38950 ft | 512 kts | 128° |
| 2026-05-08 05:38 | 45.39541 | 85.78354 | 38949 ft | 512 kts | 128° |
| 2026-05-08 05:39 | 45.34480 | 85.87656 | 38951 ft | 512 kts | 128° |
| 2026-05-08 05:39 | 45.30120 | 85.95645 | 38948 ft | 512 kts | 128° |
| 2026-05-08 05:40 | 45.26495 | 86.02270 | 38954 ft | 511 kts | 128° |
| 2026-05-08 05:40 | 45.22133 | 86.10222 | 38955 ft | 510 kts | 128° |
| 2026-05-08 05:41 | 45.17769 | 86.18156 | 38959 ft | 510 kts | 128° |
| 2026-05-08 05:41 | 45.13395 | 86.26086 | 38963 ft | 511 kts | 128° |
| 2026-05-08 05:42 | 45.09018 | 86.33998 | 38969 ft | 511 kts | 128° |
| 2026-05-08 05:42 | 45.04663 | 86.41849 | 38969 ft | 510 kts | 128° |
| 2026-05-08 05:43 | 45.00276 | 86.49737 | 38974 ft | 510 kts | 128° |
| 2026-05-08 05:43 | 44.95881 | 86.57617 | 38984 ft | 511 kts | 128° |
| 2026-05-08 05:44 | 44.91479 | 86.65487 | 38982 ft | 511 kts | 128° |
| 2026-05-08 05:44 | 44.87104 | 86.73289 | 38983 ft | 511 kts | 128° |
| 2026-05-08 05:45 | 44.82687 | 86.81133 | 38985 ft | 511 kts | 128° |
| 2026-05-08 05:45 | 44.78225 | 86.88913 | 38988 ft | 511 kts | 129° |
| 2026-05-08 05:46 | 44.73738 | 86.96666 | 38996 ft | 511 kts | 129° |
| 2026-05-08 05:46 | 44.69256 | 87.04413 | 38993 ft | 511 kts | 129° |
| 2026-05-08 05:47 | 44.64808 | 87.12109 | 38991 ft | 511 kts | 129° |
| 2026-05-08 05:47 | 44.60324 | 87.19856 | 38993 ft | 511 kts | 129° |
| 2026-05-08 05:48 | 44.55835 | 87.27589 | 38998 ft | 511 kts | 129° |
| 2026-05-08 05:48 | 44.51457 | 87.35415 | 39001 ft | 510 kts | 127° |
| 2026-05-08 05:49 | 44.47199 | 87.43278 | 39001 ft | 510 kts | 127° |
| 2026-05-08 05:49 | 44.42906 | 87.51184 | 39001 ft | 510 kts | 127° |
| 2026-05-08 05:50 | 44.38592 | 87.59069 | 38998 ft | 510 kts | 127° |
| 2026-05-08 05:50 | 44.34272 | 87.66921 | 39004 ft | 509 kts | 127° |
| 2026-05-08 05:51 | 44.29994 | 87.74793 | 39005 ft | 509 kts | 126° |
| 2026-05-08 05:51 | 44.25782 | 87.82646 | 39010 ft | 509 kts | 126° |
| 2026-05-08 05:52 | 44.21708 | 87.90711 | 39014 ft | 508 kts | 118° |
| 2026-05-08 05:52 | 44.19205 | 87.99831 | 39028 ft | 503 kts | 99° |
| 2026-05-08 05:53 | 44.19013 | 88.09446 | 39051 ft | 495 kts | 79° |
| 2026-05-08 05:53 | 44.20260 | 88.18812 | 39048 ft | 495 kts | 75° |
| 2026-05-08 05:54 | 44.21728 | 88.28182 | 39025 ft | 495 kts | 75° |
| 2026-05-08 05:54 | 44.23177 | 88.37581 | 39021 ft | 496 kts | 75° |
| 2026-05-08 05:55 | 44.24578 | 88.47010 | 39018 ft | 497 kts | 75° |
| 2026-05-08 05:55 | 44.25945 | 88.56393 | 39012 ft | 497 kts | 75° |
| 2026-05-08 05:56 | 44.27312 | 88.65846 | 38999 ft | 497 kts | 75° |
| 2026-05-08 05:56 | 44.28674 | 88.75313 | 39001 ft | 497 kts | 76° |
| 2026-05-08 05:57 | 44.30029 | 88.84778 | 38984 ft | 497 kts | 76° |
| 2026-05-08 05:57 | 44.31376 | 88.94249 | 38978 ft | 498 kts | 76° |
| 2026-05-08 05:58 | 44.32707 | 89.03663 | 38978 ft | 498 kts | 76° |
| 2026-05-08 05:58 | 44.34039 | 89.13146 | 38971 ft | 498 kts | 76° |
| 2026-05-08 05:59 | 44.35364 | 89.22638 | 38969 ft | 498 kts | 76° |
| 2026-05-08 05:59 | 44.36681 | 89.32133 | 38966 ft | 498 kts | 76° |
| 2026-05-08 06:00 | 44.37992 | 89.41651 | 38961 ft | 498 kts | 76° |
| 2026-05-08 06:00 | 44.39286 | 89.51101 | 38963 ft | 498 kts | 76° |
| 2026-05-08 06:01 | 44.40580 | 89.60617 | 38957 ft | 499 kts | 76° |
| 2026-05-08 06:01 | 44.41019 | 89.70325 | 38949 ft | 505 kts | 92° |
| 2026-05-08 06:02 | 44.39555 | 89.79969 | 38947 ft | 509 kts | 103° |
| 2026-05-08 06:02 | 44.37525 | 89.89387 | 38946 ft | 510 kts | 105° |
| 2026-05-08 06:03 | 44.35397 | 89.98832 | 38954 ft | 510 kts | 105° |
| 2026-05-08 06:03 | 44.33291 | 90.08293 | 38947 ft | 510 kts | 105° |
| 2026-05-08 06:04 | 44.31203 | 90.17771 | 38944 ft | 511 kts | 105° |
| 2026-05-08 06:04 | 44.29128 | 90.27186 | 38947 ft | 511 kts | 105° |
| 2026-05-08 06:05 | 44.27031 | 90.36655 | 38949 ft | 511 kts | 105° |
| 2026-05-08 06:05 | 44.24925 | 90.46117 | 38952 ft | 511 kts | 105° |
| 2026-05-08 06:06 | 44.22808 | 90.55588 | 38952 ft | 512 kts | 105° |
| 2026-05-08 06:06 | 44.20695 | 90.64993 | 38963 ft | 511 kts | 105° |
| 2026-05-08 06:07 | 44.18565 | 90.74433 | 38960 ft | 511 kts | 105° |
| 2026-05-08 06:07 | 44.16428 | 90.83870 | 38964 ft | 511 kts | 105° |
| 2026-05-08 06:08 | 44.14280 | 90.93309 | 38976 ft | 512 kts | 105° |
| 2026-05-08 06:08 | 44.12136 | 91.02691 | 38973 ft | 512 kts | 105° |
| 2026-05-08 06:09 | 44.09973 | 91.12120 | 38977 ft | 512 kts | 105° |
| 2026-05-08 06:09 | 44.07800 | 91.21554 | 38969 ft | 513 kts | 105° |
| 2026-05-08 06:10 | 44.05617 | 91.30996 | 38980 ft | 513 kts | 105° |
| 2026-05-08 06:10 | 44.03439 | 91.40374 | 38997 ft | 513 kts | 106° |
| 2026-05-08 06:11 | 44.01226 | 91.49807 | 38995 ft | 513 kts | 106° |
| 2026-05-08 06:11 | 43.98997 | 91.59217 | 38995 ft | 513 kts | 106° |
| 2026-05-08 06:12 | 43.96760 | 91.68622 | 39023 ft | 513 kts | 106° |
| 2026-05-08 06:12 | 43.94532 | 91.77960 | 39012 ft | 513 kts | 106° |
| 2026-05-08 06:13 | 43.92282 | 91.87355 | 39031 ft | 513 kts | 106° |
| 2026-05-08 06:13 | 43.90023 | 91.96745 | 39025 ft | 514 kts | 106° |
| 2026-05-08 06:14 | 43.87751 | 92.06149 | 39031 ft | 514 kts | 106° |
| 2026-05-08 06:14 | 43.85487 | 92.15482 | 39029 ft | 514 kts | 107° |
| 2026-05-08 06:15 | 43.83200 | 92.24870 | 39033 ft | 514 kts | 107° |
| 2026-05-08 06:15 | 43.80906 | 92.34250 | 39031 ft | 514 kts | 107° |
| 2026-05-08 06:16 | 43.78604 | 92.43623 | 39031 ft | 514 kts | 107° |
| 2026-05-08 06:16 | 43.76311 | 92.52922 | 39023 ft | 514 kts | 107° |
| 2026-05-08 06:17 | 43.72835 | 92.66951 | 39016 ft | 514 kts | 107° |
| 2026-05-08 06:17 | 43.70508 | 92.76295 | 39028 ft | 514 kts | 107° |
| 2026-05-08 06:18 | 43.68170 | 92.85643 | 39027 ft | 515 kts | 107° |
| 2026-05-08 06:18 | 43.65841 | 92.94919 | 39034 ft | 515 kts | 107° |
| 2026-05-08 06:19 | 43.63531 | 93.04268 | 39037 ft | 514 kts | 106° |
| 2026-05-08 06:19 | 43.61294 | 93.13654 | 39049 ft | 515 kts | 106° |
| 2026-05-08 06:20 | 43.59058 | 93.23047 | 39056 ft | 515 kts | 106° |
| 2026-05-08 06:20 | 43.56821 | 93.32356 | 39055 ft | 514 kts | 106° |
| 2026-05-08 06:21 | 43.54562 | 93.41697 | 39064 ft | 514 kts | 106° |
| 2026-05-08 06:21 | 43.52292 | 93.51036 | 39054 ft | 514 kts | 106° |
| 2026-05-08 06:22 | 43.50017 | 93.60360 | 39055 ft | 514 kts | 106° |
| 2026-05-08 06:22 | 43.47732 | 93.69689 | 39057 ft | 514 kts | 106° |
| 2026-05-08 06:23 | 43.45455 | 93.78947 | 39054 ft | 514 kts | 106° |
| 2026-05-08 06:23 | 43.43155 | 93.88257 | 39060 ft | 514 kts | 106° |
| 2026-05-08 06:24 | 43.40848 | 93.97562 | 39062 ft | 514 kts | 107° |
| 2026-05-08 06:24 | 43.38533 | 94.06864 | 39061 ft | 514 kts | 107° |
| 2026-05-08 06:25 | 43.36225 | 94.16093 | 39061 ft | 514 kts | 107° |
| 2026-05-08 06:25 | 43.33899 | 94.25363 | 39069 ft | 514 kts | 107° |
| 2026-05-08 06:26 | 43.31562 | 94.34640 | 39070 ft | 514 kts | 107° |
| 2026-05-08 06:26 | 43.29218 | 94.43908 | 39056 ft | 514 kts | 107° |
| 2026-05-08 06:27 | 43.26867 | 94.53163 | 39056 ft | 513 kts | 107° |
| 2026-05-08 06:27 | 43.24525 | 94.62349 | 39047 ft | 514 kts | 107° |
| 2026-05-08 06:28 | 43.22156 | 94.71604 | 39045 ft | 515 kts | 107° |
| 2026-05-08 06:28 | 43.19779 | 94.80855 | 39015 ft | 515 kts | 107° |
| 2026-05-08 06:29 | 43.17408 | 94.90046 | 38985 ft | 515 kts | 107° |
| 2026-05-08 06:29 | 43.15007 | 94.99290 | 38995 ft | 515 kts | 109° |
| 2026-05-08 06:30 | 43.11586 | 95.07876 | 38968 ft | 516 kts | 127° |
| 2026-05-08 06:30 | 43.09165 | 95.11497 | 38967 ft | 516 kts | 138° |
| 2026-05-08 06:30 | 43.06368 | 95.14565 | 38976 ft | 516 kts | 144° |
| 2026-05-08 06:31 | 43.00476 | 95.20168 | 38948 ft | 516 kts | 147° |
| 2026-05-08 06:31 | 42.94533 | 95.25555 | 38953 ft | 516 kts | 147° |
| 2026-05-08 06:32 | 42.88564 | 95.31008 | 38945 ft | 516 kts | 147° |
| 2026-05-08 06:32 | 42.82623 | 95.36487 | 38937 ft | 515 kts | 147° |
| 2026-05-08 06:33 | 42.76693 | 95.41967 | 38935 ft | 515 kts | 147° |
| 2026-05-08 06:33 | 42.70758 | 95.47439 | 38934 ft | 515 kts | 147° |
| 2026-05-08 06:34 | 42.64870 | 95.52851 | 38925 ft | 513 kts | 147° |
| 2026-05-08 06:34 | 42.58960 | 95.58271 | 38927 ft | 512 kts | 147° |
| 2026-05-08 06:35 | 42.53059 | 95.63670 | 38928 ft | 512 kts | 147° |
| 2026-05-08 06:35 | 42.47151 | 95.69062 | 38921 ft | 512 kts | 147° |
| 2026-05-08 06:36 | 42.41296 | 95.74394 | 38938 ft | 511 kts | 147° |
| 2026-05-08 06:36 | 42.35409 | 95.79785 | 38949 ft | 511 kts | 147° |
| 2026-05-08 06:37 | 42.29552 | 95.85219 | 38966 ft | 511 kts | 146° |
| 2026-05-08 06:37 | 42.23698 | 95.90649 | 38959 ft | 511 kts | 146° |
| 2026-05-08 06:38 | 42.17874 | 95.96029 | 38979 ft | 510 kts | 146° |
| 2026-05-08 06:38 | 42.12011 | 96.01428 | 38992 ft | 511 kts | 146° |
| 2026-05-08 06:39 | 42.06144 | 96.06817 | 38990 ft | 511 kts | 147° |
| 2026-05-08 06:39 | 42.00271 | 96.12200 | 38993 ft | 511 kts | 147° |
| 2026-05-08 06:40 | 41.94594 | 96.17828 | 38999 ft | 512 kts | 137° |
| 2026-05-08 06:40 | 41.90187 | 96.25273 | 38997 ft | 511 kts | 117° |
| 2026-05-08 06:41 | 41.87942 | 96.34230 | 38997 ft | 507 kts | 96° |
| 2026-05-08 06:41 | 41.87837 | 96.43626 | 38986 ft | 503 kts | 84° |
| 2026-05-08 06:42 | 41.88284 | 96.52944 | 38989 ft | 504 kts | 83° |
| 2026-05-08 06:42 | 41.88765 | 96.62341 | 38979 ft | 505 kts | 84° |
| 2026-05-08 06:43 | 41.89192 | 96.71760 | 38969 ft | 506 kts | 84° |
| 2026-05-08 06:43 | 41.89582 | 96.81178 | 38970 ft | 506 kts | 84° |
| 2026-05-08 06:44 | 41.89958 | 96.90606 | 38961 ft | 506 kts | 85° |
| 2026-05-08 06:44 | 41.90326 | 96.99982 | 38944 ft | 507 kts | 85° |
| 2026-05-08 06:45 | 41.90691 | 97.09432 | 38944 ft | 507 kts | 85° |
| 2026-05-08 06:45 | 41.91048 | 97.18875 | 38933 ft | 507 kts | 85° |
| 2026-05-08 06:46 | 41.91398 | 97.28322 | 38931 ft | 507 kts | 85° |
| 2026-05-08 06:46 | 41.91737 | 97.37707 | 38919 ft | 507 kts | 85° |
| 2026-05-08 06:47 | 41.92071 | 97.47156 | 38923 ft | 507 kts | 85° |
| 2026-05-08 06:47 | 41.92398 | 97.56610 | 38922 ft | 507 kts | 85° |
| 2026-05-08 06:48 | 41.92717 | 97.66065 | 38910 ft | 507 kts | 85° |
| 2026-05-08 06:48 | 41.93029 | 97.75541 | 38905 ft | 508 kts | 86° |
| 2026-05-08 06:49 | 41.93329 | 97.84954 | 38907 ft | 508 kts | 85° |
| 2026-05-08 06:49 | 41.93624 | 97.94432 | 38895 ft | 508 kts | 85° |
| 2026-05-08 06:50 | 41.93914 | 98.03926 | 38901 ft | 509 kts | 85° |
| 2026-05-08 06:50 | 41.94194 | 98.13369 | 38904 ft | 509 kts | 86° |
| 2026-05-08 06:51 | 41.94468 | 98.22876 | 38896 ft | 510 kts | 86° |
| 2026-05-08 06:51 | 41.94733 | 98.32390 | 38894 ft | 510 kts | 86° |
| 2026-05-08 06:52 | 41.94991 | 98.41908 | 38887 ft | 511 kts | 86° |
| 2026-05-08 06:52 | 41.95240 | 98.51378 | 38879 ft | 511 kts | 86° |
| 2026-05-08 06:53 | 41.95483 | 98.60922 | 38881 ft | 511 kts | 86° |
| 2026-05-08 06:53 | 41.95718 | 98.70460 | 38870 ft | 511 kts | 86° |
| 2026-05-08 06:54 | 41.95945 | 98.80010 | 38868 ft | 513 kts | 86° |
| 2026-05-08 06:54 | 41.96164 | 98.89537 | 38863 ft | 514 kts | 86° |
| 2026-05-08 06:55 | 41.96376 | 98.99127 | 38854 ft | 514 kts | 86° |
| 2026-05-08 06:55 | 41.96580 | 99.08720 | 38858 ft | 513 kts | 86° |
| 2026-05-08 06:56 | 41.96777 | 99.18322 | 38848 ft | 515 kts | 86° |
| 2026-05-08 06:56 | 41.96966 | 99.27955 | 38841 ft | 516 kts | 87° |
| 2026-05-08 06:57 | 41.97146 | 99.37519 | 38838 ft | 516 kts | 87° |
| 2026-05-08 06:57 | 41.97318 | 99.47154 | 38840 ft | 516 kts | 87° |
| 2026-05-08 06:58 | 41.97484 | 99.56801 | 38824 ft | 517 kts | 87° |
| 2026-05-08 06:58 | 41.97641 | 99.66458 | 38822 ft | 517 kts | 87° |
| 2026-05-08 06:59 | 41.97789 | 99.76053 | 38817 ft | 517 kts | 87° |
| 2026-05-08 06:59 | 41.97931 | 99.85713 | 38816 ft | 517 kts | 87° |
| 2026-05-08 07:00 | 41.98063 | 99.95391 | 38819 ft | 518 kts | 87° |
| 2026-05-08 07:00 | 41.98189 | 100.05079 | 38815 ft | 518 kts | 87° |
| 2026-05-08 07:01 | 41.98305 | 100.14695 | 38810 ft | 518 kts | 87° |
| 2026-05-08 07:01 | 41.98414 | 100.24385 | 38811 ft | 518 kts | 87° |
| 2026-05-08 07:02 | 41.98515 | 100.34078 | 38804 ft | 519 kts | 87° |
| 2026-05-08 07:02 | 41.98608 | 100.43785 | 38799 ft | 519 kts | 87° |
| 2026-05-08 07:03 | 41.98693 | 100.53488 | 38799 ft | 519 kts | 87° |
| 2026-05-08 07:03 | 41.98769 | 100.63130 | 38800 ft | 520 kts | 88° |
| 2026-05-08 07:04 | 41.98838 | 100.72871 | 38796 ft | 521 kts | 88° |
| 2026-05-08 07:04 | 41.98898 | 100.82617 | 38796 ft | 521 kts | 88° |
| 2026-05-08 07:05 | 41.98950 | 100.92360 | 38793 ft | 521 kts | 88° |
| 2026-05-08 07:05 | 41.98871 | 101.02041 | 38786 ft | 523 kts | 94° |
| 2026-05-08 07:06 | 41.97245 | 101.11551 | 38791 ft | 524 kts | 108° |
| 2026-05-08 07:06 | 41.94825 | 101.20786 | 38790 ft | 524 kts | 110° |
| 2026-05-08 07:07 | 41.92268 | 101.29953 | 38797 ft | 524 kts | 110° |
| 2026-05-08 07:07 | 41.89732 | 101.39071 | 38786 ft | 525 kts | 110° |
| 2026-05-08 07:08 | 41.87196 | 101.48261 | 38785 ft | 525 kts | 110° |
| 2026-05-08 07:08 | 41.84663 | 101.57455 | 38787 ft | 525 kts | 110° |
| 2026-05-08 07:09 | 41.82122 | 101.66646 | 38784 ft | 526 kts | 110° |
| 2026-05-08 07:09 | 41.79592 | 101.75772 | 38778 ft | 527 kts | 111° |
| 2026-05-08 07:10 | 41.77028 | 101.84971 | 38788 ft | 527 kts | 111° |
| 2026-05-08 07:10 | 41.74452 | 101.94174 | 38785 ft | 528 kts | 111° |
| 2026-05-08 07:11 | 41.71869 | 102.03372 | 38791 ft | 528 kts | 111° |
| 2026-05-08 07:11 | 41.69298 | 102.12498 | 38790 ft | 529 kts | 111° |
| 2026-05-08 07:12 | 41.66696 | 102.21701 | 38793 ft | 529 kts | 112° |
| 2026-05-08 07:12 | 41.64087 | 102.30892 | 38793 ft | 529 kts | 112° |
| 2026-05-08 07:13 | 41.61471 | 102.40079 | 38790 ft | 529 kts | 112° |
| 2026-05-08 07:13 | 41.58863 | 102.49200 | 38794 ft | 530 kts | 112° |
| 2026-05-08 07:14 | 41.56225 | 102.58397 | 38794 ft | 530 kts | 112° |
| 2026-05-08 07:14 | 41.53582 | 102.67578 | 38792 ft | 530 kts | 112° |
| 2026-05-08 07:15 | 41.50987 | 102.76792 | 38793 ft | 530 kts | 111° |
| 2026-05-08 07:15 | 41.48526 | 102.86014 | 38794 ft | 532 kts | 110° |
| 2026-05-08 07:16 | 41.46135 | 102.95348 | 38777 ft | 532 kts | 110° |
| 2026-05-08 07:16 | 41.43683 | 103.04674 | 38796 ft | 534 kts | 111° |
| 2026-05-08 07:17 | 41.41111 | 103.13951 | 38805 ft | 534 kts | 111° |
| 2026-05-08 07:17 | 41.38511 | 103.23224 | 38793 ft | 535 kts | 111° |
| 2026-05-08 07:18 | 41.35925 | 103.32450 | 38793 ft | 536 kts | 111° |
| 2026-05-08 07:18 | 41.33321 | 103.41734 | 38793 ft | 536 kts | 111° |
| 2026-05-08 07:19 | 41.30712 | 103.51013 | 38803 ft | 536 kts | 111° |
| 2026-05-08 07:19 | 41.28094 | 103.60292 | 38797 ft | 536 kts | 111° |
| 2026-05-08 07:20 | 41.25486 | 103.69497 | 38796 ft | 536 kts | 111° |
| 2026-05-08 07:20 | 41.22850 | 103.78767 | 38790 ft | 536 kts | 112° |
| 2026-05-08 07:21 | 41.20208 | 103.88024 | 38792 ft | 536 kts | 112° |
| 2026-05-08 07:21 | 41.17558 | 103.97275 | 38790 ft | 537 kts | 112° |
| 2026-05-08 07:22 | 41.14914 | 104.06476 | 38799 ft | 537 kts | 112° |
| 2026-05-08 07:22 | 41.12246 | 104.15727 | 38798 ft | 537 kts | 112° |
| 2026-05-08 07:23 | 41.09569 | 104.24971 | 38783 ft | 537 kts | 112° |
| 2026-05-08 07:23 | 41.06886 | 104.34208 | 38799 ft | 537 kts | 112° |
| 2026-05-08 07:24 | 41.04212 | 104.43377 | 38804 ft | 537 kts | 112° |
| 2026-05-08 07:24 | 41.01555 | 104.52632 | 38818 ft | 538 kts | 111° |
| 2026-05-08 07:25 | 40.98984 | 104.61926 | 38817 ft | 538 kts | 111° |
| 2026-05-08 07:26 | 40.95145 | 104.75801 | 38821 ft | 538 kts | 111° |
| 2026-05-08 07:26 | 40.92552 | 104.85079 | 38820 ft | 538 kts | 111° |
| 2026-05-08 07:27 | 40.89950 | 104.94342 | 38824 ft | 538 kts | 111° |
| 2026-05-08 07:27 | 40.87337 | 105.03606 | 38820 ft | 538 kts | 111° |
| 2026-05-08 07:28 | 40.84735 | 105.12800 | 38832 ft | 538 kts | 111° |
| 2026-05-08 07:28 | 40.82108 | 105.22053 | 38834 ft | 538 kts | 111° |
| 2026-05-08 07:29 | 40.79474 | 105.31294 | 38837 ft | 538 kts | 111° |
| 2026-05-08 07:29 | 40.76831 | 105.40534 | 38840 ft | 538 kts | 111° |
| 2026-05-08 07:29 | 40.75519 | 105.45111 | 38834 ft | 527 kts | 111° |
| 2026-05-08 07:30 | 40.74257 | 105.49511 | 38832 ft | 512 kts | 112° |
| 2026-05-08 07:30 | 40.73014 | 105.53834 | 38835 ft | 497 kts | 112° |
| 2026-05-08 07:30 | 40.71805 | 105.58033 | 38834 ft | 482 kts | 112° |
| 2026-05-08 07:30 | 40.70632 | 105.62101 | 38815 ft | 467 kts | 112° |
| 2026-05-08 07:31 | 40.69496 | 105.66032 | 38844 ft | 451 kts | 112° |
| 2026-05-08 07:31 | 40.68397 | 105.69828 | 38842 ft | 436 kts | 112° |
| 2026-05-08 07:31 | 40.67337 | 105.73487 | 38838 ft | 419 kts | 112° |
| 2026-05-08 07:31 | 40.66316 | 105.77003 | 38835 ft | 402 kts | 112° |
| 2026-05-08 07:32 | 40.65339 | 105.80367 | 38830 ft | 388 kts | 112° |
| 2026-05-08 07:32 | 40.63420 | 105.86912 | 38918 ft | 381 kts | 113° |
| 2026-05-08 07:33 | 40.61508 | 105.93333 | 38955 ft | 376 kts | 113° |
| 2026-05-08 07:33 | 40.60534 | 105.96546 | 38802 ft | 381 kts | 114° |
| 2026-05-08 07:33 | 40.59534 | 105.99796 | 38665 ft | 384 kts | 114° |
| 2026-05-08 07:34 | 40.57510 | 106.06255 | 38749 ft | 378 kts | 115° |
| 2026-05-08 07:34 | 40.55484 | 106.12527 | 38712 ft | 376 kts | 115° |
| 2026-05-08 07:34 | 40.54434 | 106.15688 | 38587 ft | 379 kts | 116° |
| 2026-05-08 07:35 | 40.53360 | 106.18858 | 38505 ft | 380 kts | 116° |
| 2026-05-08 07:35 | 40.51176 | 106.25140 | 38561 ft | 375 kts | 117° |
| 2026-05-08 07:36 | 40.48958 | 106.31302 | 38493 ft | 373 kts | 118° |
| 2026-05-08 07:36 | 40.47833 | 106.34336 | 38348 ft | 376 kts | 119° |
| 2026-05-08 07:36 | 40.46667 | 106.37409 | 38287 ft | 376 kts | 119° |
| 2026-05-08 07:37 | 40.44298 | 106.43428 | 38478 ft | 367 kts | 121° |
| 2026-05-08 07:37 | 40.41850 | 106.49307 | 38229 ft | 370 kts | 122° |
| 2026-05-08 07:37 | 40.40565 | 106.52246 | 38116 ft | 372 kts | 123° |
| 2026-05-08 07:38 | 40.39248 | 106.55163 | 38122 ft | 370 kts | 124° |
| 2026-05-08 07:38 | 40.36581 | 106.60784 | 38230 ft | 363 kts | 126° |
| 2026-05-08 07:39 | 40.33767 | 106.66303 | 37944 ft | 367 kts | 129° |
| 2026-05-08 07:39 | 40.32282 | 106.69042 | 37819 ft | 369 kts | 130° |
| 2026-05-08 07:39 | 40.30757 | 106.71746 | 37831 ft | 367 kts | 131° |
| 2026-05-08 07:40 | 40.27646 | 106.76958 | 37926 ft | 360 kts | 134° |
| 2026-05-08 07:40 | 40.26044 | 106.79488 | 37825 ft | 362 kts | 135° |
| 2026-05-08 07:40 | 40.24395 | 106.81984 | 37695 ft | 364 kts | 136° |
| 2026-05-08 07:41 | 40.21001 | 106.86813 | 37684 ft | 360 kts | 139° |
| 2026-05-08 07:41 | 40.17498 | 106.91403 | 37716 ft | 354 kts | 142° |
| 2026-05-08 07:41 | 40.15699 | 106.93607 | 37600 ft | 356 kts | 144° |
| 2026-05-08 07:42 | 40.13846 | 106.95771 | 37496 ft | 358 kts | 145° |
| 2026-05-08 07:42 | 40.10048 | 106.99914 | 37536 ft | 352 kts | 148° |
| 2026-05-08 07:43 | 40.06217 | 107.03740 | 37503 ft | 349 kts | 151° |
| 2026-05-08 07:43 | 40.02237 | 107.07394 | 37352 ft | 350 kts | 154° |
| 2026-05-08 07:44 | 39.98186 | 107.10817 | 37423 ft | 343 kts | 156° |
| 2026-05-08 07:44 | 39.94087 | 107.13974 | 37327 ft | 342 kts | 159° |
| 2026-05-08 07:45 | 39.89911 | 107.16868 | 37216 ft | 341 kts | 162° |
| 2026-05-08 07:45 | 39.85671 | 107.19489 | 37272 ft | 334 kts | 165° |
| 2026-05-08 07:46 | 39.81386 | 107.21794 | 37132 ft | 333 kts | 169° |
| 2026-05-08 07:46 | 39.77030 | 107.23778 | 37083 ft | 329 kts | 172° |
| 2026-05-08 07:47 | 39.72705 | 107.25409 | 37088 ft | 323 kts | 176° |
| 2026-05-08 07:47 | 39.68325 | 107.26705 | 36958 ft | 322 kts | 180° |
| 2026-05-08 07:48 | 39.63946 | 107.27653 | 36960 ft | 316 kts | 183° |
| 2026-05-08 07:48 | 39.59612 | 107.28247 | 36896 ft | 311 kts | 187° |
| 2026-05-08 07:49 | 39.55345 | 107.28478 | 36851 ft | 307 kts | 191° |
| 2026-05-08 07:49 | 39.51120 | 107.28349 | 36818 ft | 301 kts | 195° |
| 2026-05-08 07:49 | 39.49037 | 107.28146 | 36777 ft | 299 kts | 197° |
| 2026-05-08 07:50 | 39.46976 | 107.27849 | 36755 ft | 297 kts | 199° |
| 2026-05-08 07:50 | 39.44939 | 107.27457 | 36737 ft | 294 kts | 201° |
| 2026-05-08 07:50 | 39.42936 | 107.26974 | 36722 ft | 292 kts | 203° |
| 2026-05-08 07:50 | 39.40992 | 107.26407 | 36710 ft | 289 kts | 205° |
| 2026-05-08 07:51 | 39.39058 | 107.25741 | 36653 ft | 287 kts | 207° |
| 2026-05-08 07:51 | 39.37158 | 107.24997 | 36623 ft | 285 kts | 210° |
| 2026-05-08 07:51 | 39.35288 | 107.24178 | 36603 ft | 283 kts | 211° |
| 2026-05-08 07:51 | 39.33457 | 107.23287 | 36593 ft | 280 kts | 213° |
| 2026-05-08 07:52 | 39.31668 | 107.22324 | 36577 ft | 277 kts | 215° |
| 2026-05-08 07:52 | 39.29921 | 107.21286 | 36548 ft | 276 kts | 217° |
| 2026-05-08 07:52 | 39.28218 | 107.20171 | 36522 ft | 274 kts | 219° |
| 2026-05-08 07:52 | 39.26583 | 107.18996 | 36501 ft | 271 kts | 221° |
| 2026-05-08 07:53 | 39.24984 | 107.17736 | 36489 ft | 268 kts | 224° |
| 2026-05-08 07:53 | 39.23440 | 107.16403 | 36466 ft | 266 kts | 226° |
| 2026-05-08 07:53 | 39.21954 | 107.14994 | 36432 ft | 264 kts | 228° |
| 2026-05-08 07:53 | 39.20532 | 107.13508 | 36413 ft | 262 kts | 231° |
| 2026-05-08 07:54 | 39.19177 | 107.11954 | 36384 ft | 259 kts | 234° |
| 2026-05-08 07:54 | 39.17875 | 107.10359 | 36377 ft | 257 kts | 235° |
| 2026-05-08 07:54 | 39.16624 | 107.08727 | 36337 ft | 256 kts | 237° |
| 2026-05-08 07:54 | 39.15421 | 107.07046 | 36308 ft | 254 kts | 239° |
| 2026-05-08 07:55 | 39.14290 | 107.05341 | 36275 ft | 253 kts | 241° |
| 2026-05-08 07:55 | 39.13212 | 107.03564 | 36249 ft | 250 kts | 243° |
| 2026-05-08 07:55 | 39.12216 | 107.01737 | 36235 ft | 248 kts | 245° |
| 2026-05-08 07:55 | 39.11293 | 106.99868 | 36225 ft | 247 kts | 247° |
| 2026-05-08 07:56 | 39.10432 | 106.97967 | 36215 ft | 245 kts | 249° |
| 2026-05-08 07:56 | 39.09632 | 106.96037 | 36179 ft | 244 kts | 251° |
| 2026-05-08 07:56 | 39.08893 | 106.94077 | 36159 ft | 243 kts | 253° |
| 2026-05-08 07:56 | 39.08220 | 106.92094 | 36150 ft | 241 kts | 255° |
| 2026-05-08 07:57 | 39.07622 | 106.90114 | 36139 ft | 240 kts | 257° |
| 2026-05-08 07:57 | 39.07088 | 106.88087 | 36122 ft | 239 kts | 259° |
| 2026-05-08 07:57 | 39.06628 | 106.86043 | 36109 ft | 237 kts | 261° |
| 2026-05-08 07:57 | 39.06246 | 106.83984 | 36093 ft | 236 kts | 263° |
| 2026-05-08 07:58 | 39.05942 | 106.81917 | 36074 ft | 235 kts | 265° |
| 2026-05-08 07:58 | 39.05720 | 106.79841 | 36046 ft | 234 kts | 268° |
| 2026-05-08 07:58 | 39.05581 | 106.77758 | 36018 ft | 233 kts | 270° |
| 2026-05-08 07:58 | 39.05528 | 106.75678 | 36003 ft | 232 kts | 272° |
| 2026-05-08 07:59 | 39.05563 | 106.73605 | 35994 ft | 231 kts | 275° |
| 2026-05-08 07:59 | 39.05677 | 106.71571 | 35982 ft | 231 kts | 277° |
| 2026-05-08 07:59 | 39.05860 | 106.69520 | 35949 ft | 231 kts | 279° |
| 2026-05-08 07:59 | 39.06097 | 106.67483 | 35924 ft | 231 kts | 281° |
| 2026-05-08 08:00 | 39.06391 | 106.65447 | 35888 ft | 231 kts | 282° |
| 2026-05-08 08:00 | 39.06743 | 106.63429 | 35877 ft | 231 kts | 284° |
| 2026-05-08 08:00 | 39.07155 | 106.61436 | 35879 ft | 230 kts | 286° |
| 2026-05-08 08:00 | 39.07627 | 106.59472 | 35875 ft | 230 kts | 288° |
| 2026-05-08 08:01 | 39.08159 | 106.57534 | 35861 ft | 230 kts | 289° |
| 2026-05-08 08:01 | 39.08755 | 106.55619 | 35838 ft | 231 kts | 291° |
| 2026-05-08 08:01 | 39.09405 | 106.53757 | 35798 ft | 231 kts | 293° |
| 2026-05-08 08:01 | 39.10126 | 106.51905 | 35797 ft | 231 kts | 295° |
| 2026-05-08 08:02 | 39.10906 | 106.50100 | 35800 ft | 229 kts | 297° |
| 2026-05-08 08:02 | 39.11732 | 106.48362 | 35792 ft | 227 kts | 299° |
| 2026-05-08 08:02 | 39.12597 | 106.46646 | 35692 ft | 231 kts | 300° |
| 2026-05-08 08:02 | 39.13500 | 106.44916 | 35586 ft | 233 kts | 301° |
| 2026-05-08 08:03 | 39.14439 | 106.43217 | 35587 ft | 233 kts | 302° |
| 2026-05-08 08:03 | 39.15414 | 106.41560 | 35622 ft | 231 kts | 303° |
| 2026-05-08 08:03 | 39.16402 | 106.39968 | 35634 ft | 231 kts | 304° |
| 2026-05-08 08:03 | 39.17435 | 106.38378 | 35605 ft | 233 kts | 306° |
| 2026-05-08 08:04 | 39.18508 | 106.36802 | 35573 ft | 234 kts | 307° |
| 2026-05-08 08:04 | 39.19612 | 106.35258 | 35579 ft | 234 kts | 308° |
| 2026-05-08 08:04 | 39.20742 | 106.33749 | 35595 ft | 234 kts | 308° |
| 2026-05-08 08:04 | 39.21897 | 106.32258 | 35530 ft | 237 kts | 309° |
| 2026-05-08 08:05 | 39.23082 | 106.30768 | 35463 ft | 239 kts | 310° |
| 2026-05-08 08:05 | 39.24289 | 106.29294 | 35479 ft | 238 kts | 310° |
| 2026-05-08 08:05 | 39.25494 | 106.27875 | 35525 ft | 237 kts | 311° |
| 2026-05-08 08:05 | 39.26730 | 106.26472 | 35529 ft | 237 kts | 312° |
| 2026-05-08 08:06 | 39.27994 | 106.25097 | 35502 ft | 239 kts | 313° |
| 2026-05-08 08:06 | 39.29289 | 106.23751 | 35475 ft | 238 kts | 315° |
| 2026-05-08 08:06 | 39.30614 | 106.22454 | 35423 ft | 241 kts | 316° |
| 2026-05-08 08:06 | 39.31987 | 106.21192 | 35366 ft | 243 kts | 317° |
| 2026-05-08 08:07 | 39.33391 | 106.19972 | 35441 ft | 243 kts | 319° |
| 2026-05-08 08:07 | 39.34817 | 106.18819 | 35480 ft | 241 kts | 319° |
| 2026-05-08 08:07 | 39.36270 | 106.17716 | 35443 ft | 244 kts | 321° |
| 2026-05-08 08:07 | 39.37749 | 106.16654 | 35352 ft | 248 kts | 322° |
| 2026-05-08 08:08 | 39.39286 | 106.15615 | 35339 ft | 250 kts | 323° |
| 2026-05-08 08:08 | 39.40844 | 106.14637 | 35409 ft | 248 kts | 325° |
| 2026-05-08 08:08 | 39.42418 | 106.13730 | 35463 ft | 248 kts | 327° |
| 2026-05-08 08:08 | 39.44021 | 106.12885 | 35423 ft | 250 kts | 328° |
| 2026-05-08 08:09 | 39.45666 | 106.12094 | 35343 ft | 255 kts | 330° |
| 2026-05-08 08:09 | 39.47356 | 106.11363 | 35326 ft | 257 kts | 332° |
| 2026-05-08 08:09 | 39.49070 | 106.10713 | 35374 ft | 256 kts | 334° |
| 2026-05-08 08:09 | 39.50799 | 106.10152 | 35426 ft | 256 kts | 336° |
| 2026-05-08 08:10 | 39.52528 | 106.09686 | 35387 ft | 259 kts | 338° |
| 2026-05-08 08:10 | 39.54322 | 106.09292 | 35325 ft | 263 kts | 340° |
| 2026-05-08 08:10 | 39.56150 | 106.08983 | 35300 ft | 267 kts | 342° |
| 2026-05-08 08:10 | 39.58001 | 106.08771 | 35370 ft | 267 kts | 343° |
| 2026-05-08 08:11 | 39.59852 | 106.08671 | 35448 ft | 266 kts | 346° |
| 2026-05-08 08:11 | 39.61707 | 106.08662 | 35446 ft | 268 kts | 348° |
| 2026-05-08 08:11 | 39.63583 | 106.08732 | 35366 ft | 273 kts | 350° |
| 2026-05-08 08:11 | 39.65494 | 106.08884 | 35298 ft | 277 kts | 352° |
| 2026-05-08 08:12 | 39.67419 | 106.09126 | 35335 ft | 278 kts | 354° |
| 2026-05-08 08:12 | 39.69305 | 106.09460 | 35399 ft | 277 kts | 356° |
| 2026-05-08 08:12 | 39.71212 | 106.09901 | 35402 ft | 279 kts | 358° |
| 2026-05-08 08:12 | 39.73124 | 106.10447 | 35341 ft | 284 kts | 1° |
| 2026-05-08 08:13 | 39.75055 | 106.11105 | 35275 ft | 289 kts | 3° |
| 2026-05-08 08:13 | 39.76982 | 106.11878 | 35288 ft | 291 kts | 6° |
| 2026-05-08 08:13 | 39.78888 | 106.12766 | 35374 ft | 291 kts | 9° |
| 2026-05-08 08:13 | 39.80764 | 106.13757 | 35455 ft | 290 kts | 11° |
| 2026-05-08 08:14 | 39.82608 | 106.14843 | 35458 ft | 292 kts | 13° |
| 2026-05-08 08:14 | 39.84441 | 106.16036 | 35391 ft | 297 kts | 16° |
| 2026-05-08 08:14 | 39.86242 | 106.17323 | 35335 ft | 302 kts | 18° |
| 2026-05-08 08:15 | 39.89802 | 106.20261 | 35407 ft | 303 kts | 24° |
| 2026-05-08 08:15 | 39.93186 | 106.23591 | 35379 ft | 308 kts | 28° |
| 2026-05-08 08:16 | 39.96484 | 106.27255 | 35303 ft | 313 kts | 31° |
| 2026-05-08 08:16 | 39.99618 | 106.31131 | 35391 ft | 313 kts | 35° |
| 2026-05-08 08:17 | 40.02622 | 106.35305 | 35317 ft | 319 kts | 38° |
| 2026-05-08 08:17 | 40.05479 | 106.39798 | 35295 ft | 322 kts | 42° |
| 2026-05-08 08:18 | 40.08155 | 106.44488 | 35350 ft | 323 kts | 46° |
| 2026-05-08 08:18 | 40.10655 | 106.49376 | 35280 ft | 328 kts | 49° |
| 2026-05-08 08:19 | 40.12978 | 106.54523 | 35322 ft | 329 kts | 53° |
| 2026-05-08 08:19 | 40.15061 | 106.59867 | 35356 ft | 331 kts | 58° |
| 2026-05-08 08:20 | 40.16880 | 106.65356 | 35471 ft | 328 kts | 62° |
| 2026-05-08 08:20 | 40.18435 | 106.70972 | 35372 ft | 334 kts | 65° |
| 2026-05-08 08:21 | 40.19794 | 106.76821 | 35345 ft | 336 kts | 69° |
| 2026-05-08 08:21 | 40.20913 | 106.82744 | 35408 ft | 335 kts | 72° |
| 2026-05-08 08:22 | 40.21784 | 106.88780 | 35314 ft | 340 kts | 77° |
| 2026-05-08 08:22 | 40.22383 | 106.94875 | 35367 ft | 339 kts | 81° |
| 2026-05-08 08:23 | 40.22688 | 107.01040 | 35363 ft | 341 kts | 85° |